<?xml version="1.0" encoding="UTF-8" standalone="no" ?>
<gpx xmlns="http://www.topografix.com/GPX/1/1" xmlns:xsi="http://www.w3.org/2001/XMLSchema-instance" xsi:schemaLocation="http://www.topografix.com/GPX/1/1 http://www.topografix.com/GPX/1/1/gpx.xsd" version="1.1" creator="VisuGPX - https://www.visugpx.com">
  <metadata>
    <name>Thuès - Mas d'Albaret</name>
    <desc><![CDATA[Rando tranquille, à l'écart des gorges]]></desc>
  </metadata>
  <trk>
    <name><![CDATA[Thuès-Entre-Valls Marche 19 avr. 2019 à 13:05]]></name>
    <trkseg>
      <trkpt lat="42.52372" lon="2.22103">
        <ele>837</ele>
        <time>2019-04-19T11:05:32Z</time>
      </trkpt>
      <trkpt lat="42.52372" lon="2.22103">
        <ele>837</ele>
        <time>2019-04-19T11:05:34Z</time>
      </trkpt>
      <trkpt lat="42.52355" lon="2.22103">
        <ele>834</ele>
        <time>2019-04-19T11:05:59Z</time>
      </trkpt>
      <trkpt lat="42.5235" lon="2.22113">
        <ele>835</ele>
        <time>2019-04-19T11:06:10Z</time>
      </trkpt>
      <trkpt lat="42.52341" lon="2.22118">
        <ele>834</ele>
        <time>2019-04-19T11:06:25Z</time>
      </trkpt>
      <trkpt lat="42.52336" lon="2.22107">
        <ele>833</ele>
        <time>2019-04-19T11:06:32Z</time>
      </trkpt>
      <trkpt lat="42.52333" lon="2.22095">
        <ele>833</ele>
        <time>2019-04-19T11:06:41Z</time>
      </trkpt>
      <trkpt lat="42.52325" lon="2.22087">
        <ele>833</ele>
        <time>2019-04-19T11:06:50Z</time>
      </trkpt>
      <trkpt lat="42.52317" lon="2.22081">
        <ele>834</ele>
        <time>2019-04-19T11:07:04Z</time>
      </trkpt>
      <trkpt lat="42.52307" lon="2.22079">
        <ele>834</ele>
        <time>2019-04-19T11:07:18Z</time>
      </trkpt>
      <trkpt lat="42.52299" lon="2.22072">
        <ele>834</ele>
        <time>2019-04-19T11:07:37Z</time>
      </trkpt>
      <trkpt lat="42.52292" lon="2.22065">
        <ele>835</ele>
        <time>2019-04-19T11:07:53Z</time>
      </trkpt>
      <trkpt lat="42.52292" lon="2.22077">
        <ele>836</ele>
        <time>2019-04-19T11:08:04Z</time>
      </trkpt>
      <trkpt lat="42.52282" lon="2.22076">
        <ele>840</ele>
        <time>2019-04-19T11:08:34Z</time>
      </trkpt>
      <trkpt lat="42.52273" lon="2.22075">
        <ele>841</ele>
        <time>2019-04-19T11:08:48Z</time>
      </trkpt>
      <trkpt lat="42.52264" lon="2.22074">
        <ele>843</ele>
        <time>2019-04-19T11:09:02Z</time>
      </trkpt>
      <trkpt lat="42.52255" lon="2.22074">
        <ele>847</ele>
        <time>2019-04-19T11:09:15Z</time>
      </trkpt>
      <trkpt lat="42.52246" lon="2.22077">
        <ele>848</ele>
        <time>2019-04-19T11:09:27Z</time>
      </trkpt>
      <trkpt lat="42.52237" lon="2.22083">
        <ele>849</ele>
        <time>2019-04-19T11:09:49Z</time>
      </trkpt>
      <trkpt lat="42.52228" lon="2.22081">
        <ele>851</ele>
        <time>2019-04-19T11:10:03Z</time>
      </trkpt>
      <trkpt lat="42.52218" lon="2.22083">
        <ele>852</ele>
        <time>2019-04-19T11:10:14Z</time>
      </trkpt>
      <trkpt lat="42.52209" lon="2.2208">
        <ele>854</ele>
        <time>2019-04-19T11:10:25Z</time>
      </trkpt>
      <trkpt lat="42.52201" lon="2.22075">
        <ele>854</ele>
        <time>2019-04-19T11:10:35Z</time>
      </trkpt>
      <trkpt lat="42.52191" lon="2.22076">
        <ele>856</ele>
        <time>2019-04-19T11:10:52Z</time>
      </trkpt>
      <trkpt lat="42.52182" lon="2.22075">
        <ele>858</ele>
        <time>2019-04-19T11:11:05Z</time>
      </trkpt>
      <trkpt lat="42.52174" lon="2.22069">
        <ele>860</ele>
        <time>2019-04-19T11:11:17Z</time>
      </trkpt>
      <trkpt lat="42.52164" lon="2.22068">
        <ele>864</ele>
        <time>2019-04-19T11:11:31Z</time>
      </trkpt>
      <trkpt lat="42.52158" lon="2.22058">
        <ele>868</ele>
        <time>2019-04-19T11:11:53Z</time>
      </trkpt>
      <trkpt lat="42.52153" lon="2.22048">
        <ele>873</ele>
        <time>2019-04-19T11:12:14Z</time>
      </trkpt>
      <trkpt lat="42.52148" lon="2.22037">
        <ele>875</ele>
        <time>2019-04-19T11:12:33Z</time>
      </trkpt>
      <trkpt lat="42.52142" lon="2.22028">
        <ele>875</ele>
        <time>2019-04-19T11:12:52Z</time>
      </trkpt>
      <trkpt lat="42.52135" lon="2.2202">
        <ele>876</ele>
        <time>2019-04-19T11:13:07Z</time>
      </trkpt>
      <trkpt lat="42.52131" lon="2.22009">
        <ele>876</ele>
        <time>2019-04-19T11:13:35Z</time>
      </trkpt>
      <trkpt lat="42.52125" lon="2.22">
        <ele>879</ele>
        <time>2019-04-19T11:13:54Z</time>
      </trkpt>
      <trkpt lat="42.52122" lon="2.21988">
        <ele>879</ele>
        <time>2019-04-19T11:14:07Z</time>
      </trkpt>
      <trkpt lat="42.52114" lon="2.2198">
        <ele>880</ele>
        <time>2019-04-19T11:14:16Z</time>
      </trkpt>
      <trkpt lat="42.52108" lon="2.21971">
        <ele>887</ele>
        <time>2019-04-19T11:14:42Z</time>
      </trkpt>
      <trkpt lat="42.52105" lon="2.21959">
        <ele>890</ele>
        <time>2019-04-19T11:14:57Z</time>
      </trkpt>
      <trkpt lat="42.52108" lon="2.21947">
        <ele>893</ele>
        <time>2019-04-19T11:15:21Z</time>
      </trkpt>
      <trkpt lat="42.52104" lon="2.21936">
        <ele>895</ele>
        <time>2019-04-19T11:15:45Z</time>
      </trkpt>
      <trkpt lat="42.52099" lon="2.21926">
        <ele>896</ele>
        <time>2019-04-19T11:16:02Z</time>
      </trkpt>
      <trkpt lat="42.52091" lon="2.21919">
        <ele>900</ele>
        <time>2019-04-19T11:16:15Z</time>
      </trkpt>
      <trkpt lat="42.52084" lon="2.21911">
        <ele>904</ele>
        <time>2019-04-19T11:16:28Z</time>
      </trkpt>
      <trkpt lat="42.52081" lon="2.21899">
        <ele>910</ele>
        <time>2019-04-19T11:16:50Z</time>
      </trkpt>
      <trkpt lat="42.52073" lon="2.21892">
        <ele>913</ele>
        <time>2019-04-19T11:17:09Z</time>
      </trkpt>
      <trkpt lat="42.52067" lon="2.21882">
        <ele>914</ele>
        <time>2019-04-19T11:17:37Z</time>
      </trkpt>
      <trkpt lat="42.52065" lon="2.2187">
        <ele>915</ele>
        <time>2019-04-19T11:17:52Z</time>
      </trkpt>
      <trkpt lat="42.52056" lon="2.21871">
        <ele>919</ele>
        <time>2019-04-19T11:18:19Z</time>
      </trkpt>
      <trkpt lat="42.52054" lon="2.21859">
        <ele>923</ele>
        <time>2019-04-19T11:18:53Z</time>
      </trkpt>
      <trkpt lat="42.52048" lon="2.21851">
        <ele>928</ele>
        <time>2019-04-19T11:19:12Z</time>
      </trkpt>
      <trkpt lat="42.52041" lon="2.21842">
        <ele>930</ele>
        <time>2019-04-19T11:19:39Z</time>
      </trkpt>
      <trkpt lat="42.52038" lon="2.21853">
        <ele>937</ele>
        <time>2019-04-19T11:20:10Z</time>
      </trkpt>
      <trkpt lat="42.52028" lon="2.21854">
        <ele>940</ele>
        <time>2019-04-19T11:20:44Z</time>
      </trkpt>
      <trkpt lat="42.52021" lon="2.21846">
        <ele>940</ele>
        <time>2019-04-19T11:21:02Z</time>
      </trkpt>
      <trkpt lat="42.52022" lon="2.21859">
        <ele>952</ele>
        <time>2019-04-19T11:22:04Z</time>
      </trkpt>
      <trkpt lat="42.52016" lon="2.21868">
        <ele>955</ele>
        <time>2019-04-19T11:22:19Z</time>
      </trkpt>
      <trkpt lat="42.52013" lon="2.21855">
        <ele>962</ele>
        <time>2019-04-19T11:23:06Z</time>
      </trkpt>
      <trkpt lat="42.52007" lon="2.21864">
        <ele>966</ele>
        <time>2019-04-19T11:23:26Z</time>
      </trkpt>
      <trkpt lat="42.51998" lon="2.21864">
        <ele>969</ele>
        <time>2019-04-19T11:23:58Z</time>
      </trkpt>
      <trkpt lat="42.51992" lon="2.21855">
        <ele>972</ele>
        <time>2019-04-19T11:24:29Z</time>
      </trkpt>
      <trkpt lat="42.51987" lon="2.21865">
        <ele>972</ele>
        <time>2019-04-19T11:24:56Z</time>
      </trkpt>
      <trkpt lat="42.51981" lon="2.21855">
        <ele>972</ele>
        <time>2019-04-19T11:25:12Z</time>
      </trkpt>
      <trkpt lat="42.51983" lon="2.21868">
        <ele>981</ele>
        <time>2019-04-19T11:25:35Z</time>
      </trkpt>
      <trkpt lat="42.5198" lon="2.21879">
        <ele>986</ele>
        <time>2019-04-19T11:25:54Z</time>
      </trkpt>
      <trkpt lat="42.5197" lon="2.21877">
        <ele>986</ele>
        <time>2019-04-19T11:26:17Z</time>
      </trkpt>
      <trkpt lat="42.51963" lon="2.2187">
        <ele>987</ele>
        <time>2019-04-19T11:26:34Z</time>
      </trkpt>
      <trkpt lat="42.51957" lon="2.21861">
        <ele>989</ele>
        <time>2019-04-19T11:26:55Z</time>
      </trkpt>
      <trkpt lat="42.51957" lon="2.21848">
        <ele>989</ele>
        <time>2019-04-19T11:27:05Z</time>
      </trkpt>
      <trkpt lat="42.51957" lon="2.21833">
        <ele>993</ele>
        <time>2019-04-19T11:29:49Z</time>
      </trkpt>
      <trkpt lat="42.51955" lon="2.21821">
        <ele>995</ele>
        <time>2019-04-19T11:30:08Z</time>
      </trkpt>
      <trkpt lat="42.51951" lon="2.2181">
        <ele>999</ele>
        <time>2019-04-19T11:30:34Z</time>
      </trkpt>
      <trkpt lat="42.51943" lon="2.21805">
        <ele>1002</ele>
        <time>2019-04-19T11:30:51Z</time>
      </trkpt>
      <trkpt lat="42.51936" lon="2.21796">
        <ele>1003</ele>
        <time>2019-04-19T11:31:13Z</time>
      </trkpt>
      <trkpt lat="42.51927" lon="2.21793">
        <ele>1006</ele>
        <time>2019-04-19T11:31:33Z</time>
      </trkpt>
      <trkpt lat="42.51919" lon="2.21787">
        <ele>1009</ele>
        <time>2019-04-19T11:32:02Z</time>
      </trkpt>
      <trkpt lat="42.5191" lon="2.21789">
        <ele>1017</ele>
        <time>2019-04-19T11:32:39Z</time>
      </trkpt>
      <trkpt lat="42.51902" lon="2.21796">
        <ele>1026</ele>
        <time>2019-04-19T11:33:13Z</time>
      </trkpt>
      <trkpt lat="42.51893" lon="2.21793">
        <ele>1031</ele>
        <time>2019-04-19T11:34:10Z</time>
      </trkpt>
      <trkpt lat="42.51886" lon="2.21802">
        <ele>1039</ele>
        <time>2019-04-19T11:34:42Z</time>
      </trkpt>
      <trkpt lat="42.5188" lon="2.21812">
        <ele>1050</ele>
        <time>2019-04-19T11:35:43Z</time>
      </trkpt>
      <trkpt lat="42.51871" lon="2.21808">
        <ele>1053</ele>
        <time>2019-04-19T11:36:16Z</time>
      </trkpt>
      <trkpt lat="42.51861" lon="2.21806">
        <ele>1057</ele>
        <time>2019-04-19T11:37:05Z</time>
      </trkpt>
      <trkpt lat="42.51858" lon="2.21794">
        <ele>1058</ele>
        <time>2019-04-19T11:37:22Z</time>
      </trkpt>
      <trkpt lat="42.51849" lon="2.2179">
        <ele>1059</ele>
        <time>2019-04-19T11:37:44Z</time>
      </trkpt>
      <trkpt lat="42.51848" lon="2.21778">
        <ele>1064</ele>
        <time>2019-04-19T11:38:18Z</time>
      </trkpt>
      <trkpt lat="42.51842" lon="2.21768">
        <ele>1067</ele>
        <time>2019-04-19T11:38:47Z</time>
      </trkpt>
      <trkpt lat="42.51838" lon="2.21754">
        <ele>1068</ele>
        <time>2019-04-19T11:39:09Z</time>
      </trkpt>
      <trkpt lat="42.51831" lon="2.21745">
        <ele>1069</ele>
        <time>2019-04-19T11:39:19Z</time>
      </trkpt>
      <trkpt lat="42.51827" lon="2.21734">
        <ele>1071</ele>
        <time>2019-04-19T11:39:44Z</time>
      </trkpt>
      <trkpt lat="42.51824" lon="2.21722">
        <ele>1076</ele>
        <time>2019-04-19T11:40:12Z</time>
      </trkpt>
      <trkpt lat="42.51815" lon="2.21723">
        <ele>1082</ele>
        <time>2019-04-19T11:40:48Z</time>
      </trkpt>
      <trkpt lat="42.51807" lon="2.21717">
        <ele>1086</ele>
        <time>2019-04-19T11:41:15Z</time>
      </trkpt>
      <trkpt lat="42.51806" lon="2.2173">
        <ele>1092</ele>
        <time>2019-04-19T11:41:37Z</time>
      </trkpt>
      <trkpt lat="42.51799" lon="2.21736">
        <ele>1098</ele>
        <time>2019-04-19T11:42:17Z</time>
      </trkpt>
      <trkpt lat="42.51789" lon="2.21736">
        <ele>1103</ele>
        <time>2019-04-19T11:42:59Z</time>
      </trkpt>
      <trkpt lat="42.5178" lon="2.21732">
        <ele>1105</ele>
        <time>2019-04-19T11:43:26Z</time>
      </trkpt>
      <trkpt lat="42.51771" lon="2.21727">
        <ele>1109</ele>
        <time>2019-04-19T11:43:53Z</time>
      </trkpt>
      <trkpt lat="42.51769" lon="2.2174">
        <ele>1115</ele>
        <time>2019-04-19T11:44:16Z</time>
      </trkpt>
      <trkpt lat="42.51761" lon="2.21736">
        <ele>1118</ele>
        <time>2019-04-19T11:44:52Z</time>
      </trkpt>
      <trkpt lat="42.51752" lon="2.21733">
        <ele>1119</ele>
        <time>2019-04-19T11:45:13Z</time>
      </trkpt>
      <trkpt lat="42.51752" lon="2.21746">
        <ele>1123</ele>
        <time>2019-04-19T11:45:37Z</time>
      </trkpt>
      <trkpt lat="42.51757" lon="2.21756">
        <ele>1127</ele>
        <time>2019-04-19T11:45:54Z</time>
      </trkpt>
      <trkpt lat="42.51751" lon="2.21765">
        <ele>1136</ele>
        <time>2019-04-19T11:46:34Z</time>
      </trkpt>
      <trkpt lat="42.51747" lon="2.21776">
        <ele>1143</ele>
        <time>2019-04-19T11:47:16Z</time>
      </trkpt>
      <trkpt lat="42.51738" lon="2.21774">
        <ele>1146</ele>
        <time>2019-04-19T11:47:46Z</time>
      </trkpt>
      <trkpt lat="42.51729" lon="2.2177">
        <ele>1151</ele>
        <time>2019-04-19T11:48:15Z</time>
      </trkpt>
      <trkpt lat="42.5172" lon="2.21766">
        <ele>1153</ele>
        <time>2019-04-19T11:48:41Z</time>
      </trkpt>
      <trkpt lat="42.51713" lon="2.21758">
        <ele>1157</ele>
        <time>2019-04-19T11:48:59Z</time>
      </trkpt>
      <trkpt lat="42.51705" lon="2.21752">
        <ele>1157</ele>
        <time>2019-04-19T11:49:26Z</time>
      </trkpt>
      <trkpt lat="42.51697" lon="2.21744">
        <ele>1158</ele>
        <time>2019-04-19T11:49:42Z</time>
      </trkpt>
      <trkpt lat="42.5169" lon="2.21736">
        <ele>1160</ele>
        <time>2019-04-19T11:50:05Z</time>
      </trkpt>
      <trkpt lat="42.51682" lon="2.21729">
        <ele>1162</ele>
        <time>2019-04-19T11:50:32Z</time>
      </trkpt>
      <trkpt lat="42.51673" lon="2.21726">
        <ele>1167</ele>
        <time>2019-04-19T11:51:01Z</time>
      </trkpt>
      <trkpt lat="42.51663" lon="2.21726">
        <ele>1173</ele>
        <time>2019-04-19T11:51:26Z</time>
      </trkpt>
      <trkpt lat="42.51658" lon="2.21736">
        <ele>1180</ele>
        <time>2019-04-19T11:52:01Z</time>
      </trkpt>
      <trkpt lat="42.51654" lon="2.21747">
        <ele>1185</ele>
        <time>2019-04-19T11:52:37Z</time>
      </trkpt>
      <trkpt lat="42.51645" lon="2.21742">
        <ele>1189</ele>
        <time>2019-04-19T11:53:03Z</time>
      </trkpt>
      <trkpt lat="42.51636" lon="2.21739">
        <ele>1193</ele>
        <time>2019-04-19T11:53:38Z</time>
      </trkpt>
      <trkpt lat="42.51627" lon="2.21738">
        <ele>1197</ele>
        <time>2019-04-19T11:54:00Z</time>
      </trkpt>
      <trkpt lat="42.51624" lon="2.21726">
        <ele>1199</ele>
        <time>2019-04-19T11:54:15Z</time>
      </trkpt>
      <trkpt lat="42.51615" lon="2.2173">
        <ele>1202</ele>
        <time>2019-04-19T11:54:30Z</time>
      </trkpt>
      <trkpt lat="42.51608" lon="2.21721">
        <ele>1206</ele>
        <time>2019-04-19T11:55:07Z</time>
      </trkpt>
      <trkpt lat="42.516" lon="2.21715">
        <ele>1209</ele>
        <time>2019-04-19T11:55:20Z</time>
      </trkpt>
      <trkpt lat="42.51593" lon="2.21706">
        <ele>1212</ele>
        <time>2019-04-19T11:55:36Z</time>
      </trkpt>
      <trkpt lat="42.51589" lon="2.21695">
        <ele>1217</ele>
        <time>2019-04-19T11:56:00Z</time>
      </trkpt>
      <trkpt lat="42.51581" lon="2.21702">
        <ele>1225</ele>
        <time>2019-04-19T11:56:30Z</time>
      </trkpt>
      <trkpt lat="42.51573" lon="2.2171">
        <ele>1229</ele>
        <time>2019-04-19T11:56:50Z</time>
      </trkpt>
      <trkpt lat="42.51568" lon="2.21699">
        <ele>1232</ele>
        <time>2019-04-19T11:57:23Z</time>
      </trkpt>
      <trkpt lat="42.51565" lon="2.21687">
        <ele>1236</ele>
        <time>2019-04-19T11:57:53Z</time>
      </trkpt>
      <trkpt lat="42.51557" lon="2.21683">
        <ele>1239</ele>
        <time>2019-04-19T11:58:13Z</time>
      </trkpt>
      <trkpt lat="42.51551" lon="2.21674">
        <ele>1241</ele>
        <time>2019-04-19T11:58:35Z</time>
      </trkpt>
      <trkpt lat="42.51547" lon="2.21685">
        <ele>1250</ele>
        <time>2019-04-19T11:59:31Z</time>
      </trkpt>
      <trkpt lat="42.51543" lon="2.21693">
        <ele>1261</ele>
        <time>2019-04-19T12:00:42Z</time>
      </trkpt>
      <trkpt lat="42.51535" lon="2.21685">
        <ele>1262</ele>
        <time>2019-04-19T12:01:29Z</time>
      </trkpt>
      <trkpt lat="42.51528" lon="2.21691">
        <ele>1266</ele>
        <time>2019-04-19T12:02:22Z</time>
      </trkpt>
      <trkpt lat="42.5152" lon="2.21685">
        <ele>1270</ele>
        <time>2019-04-19T12:02:49Z</time>
      </trkpt>
      <trkpt lat="42.51515" lon="2.21695">
        <ele>1277</ele>
        <time>2019-04-19T12:03:24Z</time>
      </trkpt>
      <trkpt lat="42.51506" lon="2.2169">
        <ele>1281</ele>
        <time>2019-04-19T12:04:19Z</time>
      </trkpt>
      <trkpt lat="42.51497" lon="2.21692">
        <ele>1286</ele>
        <time>2019-04-19T12:04:45Z</time>
      </trkpt>
      <trkpt lat="42.51492" lon="2.21681">
        <ele>1290</ele>
        <time>2019-04-19T12:05:27Z</time>
      </trkpt>
      <trkpt lat="42.51489" lon="2.21693">
        <ele>1293</ele>
        <time>2019-04-19T12:05:53Z</time>
      </trkpt>
      <trkpt lat="42.51489" lon="2.21705">
        <ele>1295</ele>
        <time>2019-04-19T12:06:16Z</time>
      </trkpt>
      <trkpt lat="42.5148" lon="2.21708">
        <ele>1300</ele>
        <time>2019-04-19T12:07:01Z</time>
      </trkpt>
      <trkpt lat="42.51471" lon="2.21709">
        <ele>1304</ele>
        <time>2019-04-19T12:07:38Z</time>
      </trkpt>
      <trkpt lat="42.51462" lon="2.21711">
        <ele>1308</ele>
        <time>2019-04-19T12:08:34Z</time>
      </trkpt>
      <trkpt lat="42.51452" lon="2.21712">
        <ele>1308</ele>
        <time>2019-04-19T12:08:56Z</time>
      </trkpt>
      <trkpt lat="42.51443" lon="2.21726">
        <ele>1311</ele>
        <time>2019-04-19T12:10:23Z</time>
      </trkpt>
      <trkpt lat="42.51445" lon="2.21714">
        <ele>1312</ele>
        <time>2019-04-19T12:10:50Z</time>
      </trkpt>
      <trkpt lat="42.51439" lon="2.21704">
        <ele>1312</ele>
        <time>2019-04-19T12:11:04Z</time>
      </trkpt>
      <trkpt lat="42.5143" lon="2.21701">
        <ele>1313</ele>
        <time>2019-04-19T12:11:23Z</time>
      </trkpt>
      <trkpt lat="42.51424" lon="2.21692">
        <ele>1316</ele>
        <time>2019-04-19T12:11:46Z</time>
      </trkpt>
      <trkpt lat="42.51416" lon="2.21675">
        <ele>1318</ele>
        <time>2019-04-19T12:12:15Z</time>
      </trkpt>
      <trkpt lat="42.51408" lon="2.21668">
        <ele>1322</ele>
        <time>2019-04-19T12:12:35Z</time>
      </trkpt>
      <trkpt lat="42.51402" lon="2.21659">
        <ele>1324</ele>
        <time>2019-04-19T12:12:50Z</time>
      </trkpt>
      <trkpt lat="42.51394" lon="2.21653">
        <ele>1328</ele>
        <time>2019-04-19T12:13:24Z</time>
      </trkpt>
      <trkpt lat="42.51385" lon="2.2165">
        <ele>1330</ele>
        <time>2019-04-19T12:13:44Z</time>
      </trkpt>
      <trkpt lat="42.51376" lon="2.21648">
        <ele>1336</ele>
        <time>2019-04-19T12:14:04Z</time>
      </trkpt>
      <trkpt lat="42.51367" lon="2.21655">
        <ele>1339</ele>
        <time>2019-04-19T12:14:19Z</time>
      </trkpt>
      <trkpt lat="42.51359" lon="2.21661">
        <ele>1341</ele>
        <time>2019-04-19T12:14:31Z</time>
      </trkpt>
      <trkpt lat="42.5135" lon="2.21664">
        <ele>1341</ele>
        <time>2019-04-19T12:14:51Z</time>
      </trkpt>
      <trkpt lat="42.51341" lon="2.21663">
        <ele>1342</ele>
        <time>2019-04-19T12:15:02Z</time>
      </trkpt>
      <trkpt lat="42.51332" lon="2.21667">
        <ele>1342</ele>
        <time>2019-04-19T12:15:15Z</time>
      </trkpt>
      <trkpt lat="42.51317" lon="2.21664">
        <ele>1345</ele>
        <time>2019-04-19T12:15:51Z</time>
      </trkpt>
      <trkpt lat="42.51308" lon="2.21665">
        <ele>1345</ele>
        <time>2019-04-19T12:16:02Z</time>
      </trkpt>
      <trkpt lat="42.513" lon="2.21671">
        <ele>1345</ele>
        <time>2019-04-19T12:16:13Z</time>
      </trkpt>
      <trkpt lat="42.51291" lon="2.21673">
        <ele>1346</ele>
        <time>2019-04-19T12:16:26Z</time>
      </trkpt>
      <trkpt lat="42.51282" lon="2.21675">
        <ele>1348</ele>
        <time>2019-04-19T12:16:37Z</time>
      </trkpt>
      <trkpt lat="42.51272" lon="2.21677">
        <ele>1348</ele>
        <time>2019-04-19T12:16:48Z</time>
      </trkpt>
      <trkpt lat="42.51263" lon="2.2168">
        <ele>1350</ele>
        <time>2019-04-19T12:17:01Z</time>
      </trkpt>
      <trkpt lat="42.51253" lon="2.2168">
        <ele>1351</ele>
        <time>2019-04-19T12:17:16Z</time>
      </trkpt>
      <trkpt lat="42.51245" lon="2.21684">
        <ele>1351</ele>
        <time>2019-04-19T12:17:26Z</time>
      </trkpt>
      <trkpt lat="42.51237" lon="2.2169">
        <ele>1353</ele>
        <time>2019-04-19T12:17:38Z</time>
      </trkpt>
      <trkpt lat="42.51228" lon="2.21695">
        <ele>1354</ele>
        <time>2019-04-19T12:17:50Z</time>
      </trkpt>
      <trkpt lat="42.5122" lon="2.21699">
        <ele>1356</ele>
        <time>2019-04-19T12:18:00Z</time>
      </trkpt>
      <trkpt lat="42.5121" lon="2.21701">
        <ele>1358</ele>
        <time>2019-04-19T12:18:13Z</time>
      </trkpt>
      <trkpt lat="42.51202" lon="2.21695">
        <ele>1359</ele>
        <time>2019-04-19T12:18:26Z</time>
      </trkpt>
      <trkpt lat="42.51193" lon="2.21695">
        <ele>1361</ele>
        <time>2019-04-19T12:18:37Z</time>
      </trkpt>
      <trkpt lat="42.51184" lon="2.21698">
        <ele>1361</ele>
        <time>2019-04-19T12:18:51Z</time>
      </trkpt>
      <trkpt lat="42.51177" lon="2.21704">
        <ele>1363</ele>
        <time>2019-04-19T12:19:02Z</time>
      </trkpt>
      <trkpt lat="42.51167" lon="2.21702">
        <ele>1364</ele>
        <time>2019-04-19T12:19:14Z</time>
      </trkpt>
      <trkpt lat="42.51158" lon="2.21699">
        <ele>1365</ele>
        <time>2019-04-19T12:19:27Z</time>
      </trkpt>
      <trkpt lat="42.51149" lon="2.21699">
        <ele>1365</ele>
        <time>2019-04-19T12:19:39Z</time>
      </trkpt>
      <trkpt lat="42.5114" lon="2.21704">
        <ele>1367</ele>
        <time>2019-04-19T12:19:51Z</time>
      </trkpt>
      <trkpt lat="42.51131" lon="2.21709">
        <ele>1369</ele>
        <time>2019-04-19T12:20:01Z</time>
      </trkpt>
      <trkpt lat="42.51121" lon="2.21707">
        <ele>1371</ele>
        <time>2019-04-19T12:20:12Z</time>
      </trkpt>
      <trkpt lat="42.51112" lon="2.21706">
        <ele>1372</ele>
        <time>2019-04-19T12:20:24Z</time>
      </trkpt>
      <trkpt lat="42.51103" lon="2.21705">
        <ele>1374</ele>
        <time>2019-04-19T12:20:34Z</time>
      </trkpt>
      <trkpt lat="42.51095" lon="2.21698">
        <ele>1374</ele>
        <time>2019-04-19T12:20:47Z</time>
      </trkpt>
      <trkpt lat="42.51087" lon="2.21691">
        <ele>1374</ele>
        <time>2019-04-19T12:20:59Z</time>
      </trkpt>
      <trkpt lat="42.51079" lon="2.21686">
        <ele>1376</ele>
        <time>2019-04-19T12:21:12Z</time>
      </trkpt>
      <trkpt lat="42.5107" lon="2.21681">
        <ele>1378</ele>
        <time>2019-04-19T12:21:28Z</time>
      </trkpt>
      <trkpt lat="42.51064" lon="2.21672">
        <ele>1379</ele>
        <time>2019-04-19T12:21:40Z</time>
      </trkpt>
      <trkpt lat="42.51056" lon="2.21666">
        <ele>1382</ele>
        <time>2019-04-19T12:21:56Z</time>
      </trkpt>
      <trkpt lat="42.5105" lon="2.21656">
        <ele>1383</ele>
        <time>2019-04-19T12:22:07Z</time>
      </trkpt>
      <trkpt lat="42.51043" lon="2.21657">
        <ele>1384</ele>
        <time>2019-04-19T12:22:48Z</time>
      </trkpt>
      <trkpt lat="42.51033" lon="2.21655">
        <ele>1384</ele>
        <time>2019-04-19T12:23:05Z</time>
      </trkpt>
      <trkpt lat="42.51025" lon="2.21647">
        <ele>1386</ele>
        <time>2019-04-19T12:23:23Z</time>
      </trkpt>
      <trkpt lat="42.51017" lon="2.21642">
        <ele>1387</ele>
        <time>2019-04-19T12:23:37Z</time>
      </trkpt>
      <trkpt lat="42.51007" lon="2.2164">
        <ele>1387</ele>
        <time>2019-04-19T12:23:50Z</time>
      </trkpt>
      <trkpt lat="42.50998" lon="2.21639">
        <ele>1389</ele>
        <time>2019-04-19T12:23:59Z</time>
      </trkpt>
      <trkpt lat="42.5099" lon="2.21632">
        <ele>1388</ele>
        <time>2019-04-19T12:24:14Z</time>
      </trkpt>
      <trkpt lat="42.50981" lon="2.21631">
        <ele>1389</ele>
        <time>2019-04-19T12:24:30Z</time>
      </trkpt>
      <trkpt lat="42.50972" lon="2.21629">
        <ele>1391</ele>
        <time>2019-04-19T12:24:46Z</time>
      </trkpt>
      <trkpt lat="42.50964" lon="2.21622">
        <ele>1394</ele>
        <time>2019-04-19T12:25:04Z</time>
      </trkpt>
      <trkpt lat="42.50957" lon="2.21614">
        <ele>1395</ele>
        <time>2019-04-19T12:25:17Z</time>
      </trkpt>
      <trkpt lat="42.50949" lon="2.21607">
        <ele>1398</ele>
        <time>2019-04-19T12:25:32Z</time>
      </trkpt>
      <trkpt lat="42.5094" lon="2.21603">
        <ele>1399</ele>
        <time>2019-04-19T12:25:45Z</time>
      </trkpt>
      <trkpt lat="42.50933" lon="2.21595">
        <ele>1401</ele>
        <time>2019-04-19T12:25:58Z</time>
      </trkpt>
      <trkpt lat="42.50928" lon="2.21584">
        <ele>1402</ele>
        <time>2019-04-19T12:26:12Z</time>
      </trkpt>
      <trkpt lat="42.50923" lon="2.21573">
        <ele>1404</ele>
        <time>2019-04-19T12:26:25Z</time>
      </trkpt>
      <trkpt lat="42.50925" lon="2.21585">
        <ele>1413</ele>
        <time>2019-04-19T12:27:12Z</time>
      </trkpt>
      <trkpt lat="42.50927" lon="2.21598">
        <ele>1416</ele>
        <time>2019-04-19T12:27:29Z</time>
      </trkpt>
      <trkpt lat="42.50929" lon="2.2161">
        <ele>1419</ele>
        <time>2019-04-19T12:27:43Z</time>
      </trkpt>
      <trkpt lat="42.50929" lon="2.21623">
        <ele>1421</ele>
        <time>2019-04-19T12:27:56Z</time>
      </trkpt>
      <trkpt lat="42.50933" lon="2.21634">
        <ele>1422</ele>
        <time>2019-04-19T12:28:09Z</time>
      </trkpt>
      <trkpt lat="42.50938" lon="2.21645">
        <ele>1423</ele>
        <time>2019-04-19T12:28:23Z</time>
      </trkpt>
      <trkpt lat="42.50945" lon="2.21654">
        <ele>1425</ele>
        <time>2019-04-19T12:28:38Z</time>
      </trkpt>
      <trkpt lat="42.50951" lon="2.21665">
        <ele>1427</ele>
        <time>2019-04-19T12:28:53Z</time>
      </trkpt>
      <trkpt lat="42.50953" lon="2.21678">
        <ele>1428</ele>
        <time>2019-04-19T12:29:05Z</time>
      </trkpt>
      <trkpt lat="42.50957" lon="2.21689">
        <ele>1430</ele>
        <time>2019-04-19T12:29:19Z</time>
      </trkpt>
      <trkpt lat="42.50963" lon="2.21699">
        <ele>1431</ele>
        <time>2019-04-19T12:29:31Z</time>
      </trkpt>
      <trkpt lat="42.50967" lon="2.21711">
        <ele>1432</ele>
        <time>2019-04-19T12:29:43Z</time>
      </trkpt>
      <trkpt lat="42.5097" lon="2.21723">
        <ele>1434</ele>
        <time>2019-04-19T12:29:53Z</time>
      </trkpt>
      <trkpt lat="42.50969" lon="2.21737">
        <ele>1436</ele>
        <time>2019-04-19T12:30:02Z</time>
      </trkpt>
      <trkpt lat="42.50966" lon="2.21748">
        <ele>1436</ele>
        <time>2019-04-19T12:30:12Z</time>
      </trkpt>
      <trkpt lat="42.5096" lon="2.21759">
        <ele>1438</ele>
        <time>2019-04-19T12:30:20Z</time>
      </trkpt>
      <trkpt lat="42.50955" lon="2.2177">
        <ele>1439</ele>
        <time>2019-04-19T12:30:35Z</time>
      </trkpt>
      <trkpt lat="42.50948" lon="2.21779">
        <ele>1439</ele>
        <time>2019-04-19T12:30:45Z</time>
      </trkpt>
      <trkpt lat="42.50939" lon="2.21785">
        <ele>1440</ele>
        <time>2019-04-19T12:30:55Z</time>
      </trkpt>
      <trkpt lat="42.50934" lon="2.21775">
        <ele>1443</ele>
        <time>2019-04-19T12:31:10Z</time>
      </trkpt>
      <trkpt lat="42.50938" lon="2.21764">
        <ele>1443</ele>
        <time>2019-04-19T12:31:23Z</time>
      </trkpt>
      <trkpt lat="42.5094" lon="2.21751">
        <ele>1444</ele>
        <time>2019-04-19T12:31:35Z</time>
      </trkpt>
      <trkpt lat="42.50937" lon="2.21738">
        <ele>1445</ele>
        <time>2019-04-19T12:31:48Z</time>
      </trkpt>
      <trkpt lat="42.50932" lon="2.21727">
        <ele>1447</ele>
        <time>2019-04-19T12:31:59Z</time>
      </trkpt>
      <trkpt lat="42.50927" lon="2.21716">
        <ele>1448</ele>
        <time>2019-04-19T12:32:12Z</time>
      </trkpt>
      <trkpt lat="42.50919" lon="2.21708">
        <ele>1449</ele>
        <time>2019-04-19T12:32:22Z</time>
      </trkpt>
      <trkpt lat="42.50911" lon="2.21701">
        <ele>1451</ele>
        <time>2019-04-19T12:32:36Z</time>
      </trkpt>
      <trkpt lat="42.50905" lon="2.21691">
        <ele>1452</ele>
        <time>2019-04-19T12:32:45Z</time>
      </trkpt>
      <trkpt lat="42.509" lon="2.2168">
        <ele>1453</ele>
        <time>2019-04-19T12:32:56Z</time>
      </trkpt>
      <trkpt lat="42.50896" lon="2.21669">
        <ele>1454</ele>
        <time>2019-04-19T12:33:09Z</time>
      </trkpt>
      <trkpt lat="42.50891" lon="2.21658">
        <ele>1454</ele>
        <time>2019-04-19T12:33:23Z</time>
      </trkpt>
      <trkpt lat="42.50884" lon="2.2165">
        <ele>1454</ele>
        <time>2019-04-19T12:33:31Z</time>
      </trkpt>
      <trkpt lat="42.50879" lon="2.21639">
        <ele>1456</ele>
        <time>2019-04-19T12:33:42Z</time>
      </trkpt>
      <trkpt lat="42.50876" lon="2.21628">
        <ele>1457</ele>
        <time>2019-04-19T12:33:55Z</time>
      </trkpt>
      <trkpt lat="42.5087" lon="2.21617">
        <ele>1458</ele>
        <time>2019-04-19T12:34:09Z</time>
      </trkpt>
      <trkpt lat="42.50864" lon="2.21608">
        <ele>1459</ele>
        <time>2019-04-19T12:34:21Z</time>
      </trkpt>
      <trkpt lat="42.50859" lon="2.21597">
        <ele>1461</ele>
        <time>2019-04-19T12:34:33Z</time>
      </trkpt>
      <trkpt lat="42.50853" lon="2.21589">
        <ele>1462</ele>
        <time>2019-04-19T12:34:47Z</time>
      </trkpt>
      <trkpt lat="42.50854" lon="2.21576">
        <ele>1461</ele>
        <time>2019-04-19T12:35:00Z</time>
      </trkpt>
      <trkpt lat="42.50847" lon="2.21566">
        <ele>1464</ele>
        <time>2019-04-19T12:35:14Z</time>
      </trkpt>
      <trkpt lat="42.50842" lon="2.21556">
        <ele>1464</ele>
        <time>2019-04-19T12:35:24Z</time>
      </trkpt>
      <trkpt lat="42.50834" lon="2.21548">
        <ele>1466</ele>
        <time>2019-04-19T12:35:36Z</time>
      </trkpt>
      <trkpt lat="42.50827" lon="2.2154">
        <ele>1467</ele>
        <time>2019-04-19T12:35:53Z</time>
      </trkpt>
      <trkpt lat="42.50818" lon="2.21536">
        <ele>1469</ele>
        <time>2019-04-19T12:36:05Z</time>
      </trkpt>
      <trkpt lat="42.50811" lon="2.21527">
        <ele>1468</ele>
        <time>2019-04-19T12:36:18Z</time>
      </trkpt>
      <trkpt lat="42.50803" lon="2.2152">
        <ele>1469</ele>
        <time>2019-04-19T12:36:26Z</time>
      </trkpt>
      <trkpt lat="42.50802" lon="2.21507">
        <ele>1470</ele>
        <time>2019-04-19T12:36:37Z</time>
      </trkpt>
      <trkpt lat="42.50794" lon="2.215">
        <ele>1472</ele>
        <time>2019-04-19T12:36:56Z</time>
      </trkpt>
      <trkpt lat="42.50788" lon="2.21491">
        <ele>1473</ele>
        <time>2019-04-19T12:37:08Z</time>
      </trkpt>
      <trkpt lat="42.50782" lon="2.2148">
        <ele>1475</ele>
        <time>2019-04-19T12:37:20Z</time>
      </trkpt>
      <trkpt lat="42.50774" lon="2.21473">
        <ele>1478</ele>
        <time>2019-04-19T12:37:35Z</time>
      </trkpt>
      <trkpt lat="42.50767" lon="2.21465">
        <ele>1481</ele>
        <time>2019-04-19T12:37:55Z</time>
      </trkpt>
      <trkpt lat="42.5076" lon="2.21456">
        <ele>1482</ele>
        <time>2019-04-19T12:38:11Z</time>
      </trkpt>
      <trkpt lat="42.50763" lon="2.21468">
        <ele>1489</ele>
        <time>2019-04-19T12:38:36Z</time>
      </trkpt>
      <trkpt lat="42.50768" lon="2.21478">
        <ele>1491</ele>
        <time>2019-04-19T12:38:47Z</time>
      </trkpt>
      <trkpt lat="42.50772" lon="2.2149">
        <ele>1493</ele>
        <time>2019-04-19T12:38:59Z</time>
      </trkpt>
      <trkpt lat="42.50774" lon="2.21502">
        <ele>1495</ele>
        <time>2019-04-19T12:39:10Z</time>
      </trkpt>
      <trkpt lat="42.5078" lon="2.21512">
        <ele>1496</ele>
        <time>2019-04-19T12:39:26Z</time>
      </trkpt>
      <trkpt lat="42.50781" lon="2.21524">
        <ele>1498</ele>
        <time>2019-04-19T12:39:38Z</time>
      </trkpt>
      <trkpt lat="42.50784" lon="2.21536">
        <ele>1500</ele>
        <time>2019-04-19T12:39:49Z</time>
      </trkpt>
      <trkpt lat="42.50786" lon="2.21548">
        <ele>1502</ele>
        <time>2019-04-19T12:40:00Z</time>
      </trkpt>
      <trkpt lat="42.50788" lon="2.2156">
        <ele>1503</ele>
        <time>2019-04-19T12:40:11Z</time>
      </trkpt>
      <trkpt lat="42.5079" lon="2.21572">
        <ele>1505</ele>
        <time>2019-04-19T12:40:22Z</time>
      </trkpt>
      <trkpt lat="42.50796" lon="2.21582">
        <ele>1506</ele>
        <time>2019-04-19T12:40:32Z</time>
      </trkpt>
      <trkpt lat="42.508" lon="2.21594">
        <ele>1508</ele>
        <time>2019-04-19T12:40:44Z</time>
      </trkpt>
      <trkpt lat="42.50802" lon="2.21606">
        <ele>1510</ele>
        <time>2019-04-19T12:40:58Z</time>
      </trkpt>
      <trkpt lat="42.50804" lon="2.21619">
        <ele>1511</ele>
        <time>2019-04-19T12:41:09Z</time>
      </trkpt>
      <trkpt lat="42.50803" lon="2.21631">
        <ele>1512</ele>
        <time>2019-04-19T12:41:21Z</time>
      </trkpt>
      <trkpt lat="42.50807" lon="2.21642">
        <ele>1513</ele>
        <time>2019-04-19T12:41:32Z</time>
      </trkpt>
      <trkpt lat="42.50808" lon="2.21655">
        <ele>1513</ele>
        <time>2019-04-19T12:41:42Z</time>
      </trkpt>
      <trkpt lat="42.50806" lon="2.21667">
        <ele>1514</ele>
        <time>2019-04-19T12:41:53Z</time>
      </trkpt>
      <trkpt lat="42.50799" lon="2.21658">
        <ele>1516</ele>
        <time>2019-04-19T12:42:15Z</time>
      </trkpt>
      <trkpt lat="42.50795" lon="2.21646">
        <ele>1517</ele>
        <time>2019-04-19T12:42:27Z</time>
      </trkpt>
      <trkpt lat="42.50789" lon="2.21637">
        <ele>1517</ele>
        <time>2019-04-19T12:42:43Z</time>
      </trkpt>
      <trkpt lat="42.50784" lon="2.21626">
        <ele>1518</ele>
        <time>2019-04-19T12:42:56Z</time>
      </trkpt>
      <trkpt lat="42.50777" lon="2.21615">
        <ele>1519</ele>
        <time>2019-04-19T12:43:06Z</time>
      </trkpt>
      <trkpt lat="42.50773" lon="2.21604">
        <ele>1520</ele>
        <time>2019-04-19T12:43:20Z</time>
      </trkpt>
      <trkpt lat="42.50766" lon="2.21596">
        <ele>1520</ele>
        <time>2019-04-19T12:43:33Z</time>
      </trkpt>
      <trkpt lat="42.50757" lon="2.21591">
        <ele>1521</ele>
        <time>2019-04-19T12:43:45Z</time>
      </trkpt>
      <trkpt lat="42.50751" lon="2.21581">
        <ele>1522</ele>
        <time>2019-04-19T12:43:57Z</time>
      </trkpt>
      <trkpt lat="42.50746" lon="2.21571">
        <ele>1523</ele>
        <time>2019-04-19T12:44:11Z</time>
      </trkpt>
      <trkpt lat="42.50739" lon="2.21562">
        <ele>1524</ele>
        <time>2019-04-19T12:44:25Z</time>
      </trkpt>
      <trkpt lat="42.50732" lon="2.21554">
        <ele>1526</ele>
        <time>2019-04-19T12:44:36Z</time>
      </trkpt>
      <trkpt lat="42.50726" lon="2.21544">
        <ele>1528</ele>
        <time>2019-04-19T12:44:48Z</time>
      </trkpt>
      <trkpt lat="42.50723" lon="2.21531">
        <ele>1530</ele>
        <time>2019-04-19T12:45:03Z</time>
      </trkpt>
      <trkpt lat="42.5072" lon="2.21519">
        <ele>1530</ele>
        <time>2019-04-19T12:45:15Z</time>
      </trkpt>
      <trkpt lat="42.50719" lon="2.21507">
        <ele>1531</ele>
        <time>2019-04-19T12:45:28Z</time>
      </trkpt>
      <trkpt lat="42.50712" lon="2.21497">
        <ele>1534</ele>
        <time>2019-04-19T12:45:38Z</time>
      </trkpt>
      <trkpt lat="42.50705" lon="2.21488">
        <ele>1534</ele>
        <time>2019-04-19T12:45:50Z</time>
      </trkpt>
      <trkpt lat="42.50698" lon="2.2148">
        <ele>1537</ele>
        <time>2019-04-19T12:46:03Z</time>
      </trkpt>
      <trkpt lat="42.50697" lon="2.21468">
        <ele>1540</ele>
        <time>2019-04-19T12:46:17Z</time>
      </trkpt>
      <trkpt lat="42.50695" lon="2.21455">
        <ele>1541</ele>
        <time>2019-04-19T12:46:31Z</time>
      </trkpt>
      <trkpt lat="42.50694" lon="2.21443">
        <ele>1544</ele>
        <time>2019-04-19T12:46:45Z</time>
      </trkpt>
      <trkpt lat="42.50688" lon="2.21433">
        <ele>1546</ele>
        <time>2019-04-19T12:46:58Z</time>
      </trkpt>
      <trkpt lat="42.5068" lon="2.21425">
        <ele>1547</ele>
        <time>2019-04-19T12:47:08Z</time>
      </trkpt>
      <trkpt lat="42.50677" lon="2.21413">
        <ele>1548</ele>
        <time>2019-04-19T12:47:19Z</time>
      </trkpt>
      <trkpt lat="42.50674" lon="2.21401">
        <ele>1548</ele>
        <time>2019-04-19T12:47:33Z</time>
      </trkpt>
      <trkpt lat="42.50665" lon="2.21399">
        <ele>1550</ele>
        <time>2019-04-19T12:47:50Z</time>
      </trkpt>
      <trkpt lat="42.50656" lon="2.214">
        <ele>1551</ele>
        <time>2019-04-19T12:48:04Z</time>
      </trkpt>
      <trkpt lat="42.50648" lon="2.21405">
        <ele>1551</ele>
        <time>2019-04-19T12:48:13Z</time>
      </trkpt>
      <trkpt lat="42.50639" lon="2.21408">
        <ele>1554</ele>
        <time>2019-04-19T12:48:23Z</time>
      </trkpt>
      <trkpt lat="42.5063" lon="2.21413">
        <ele>1555</ele>
        <time>2019-04-19T12:48:34Z</time>
      </trkpt>
      <trkpt lat="42.50621" lon="2.21416">
        <ele>1555</ele>
        <time>2019-04-19T12:48:46Z</time>
      </trkpt>
      <trkpt lat="42.50612" lon="2.21423">
        <ele>1556</ele>
        <time>2019-04-19T12:48:59Z</time>
      </trkpt>
      <trkpt lat="42.50603" lon="2.21427">
        <ele>1558</ele>
        <time>2019-04-19T12:49:10Z</time>
      </trkpt>
      <trkpt lat="42.50594" lon="2.21426">
        <ele>1558</ele>
        <time>2019-04-19T12:49:20Z</time>
      </trkpt>
      <trkpt lat="42.50585" lon="2.21429">
        <ele>1558</ele>
        <time>2019-04-19T12:49:27Z</time>
      </trkpt>
      <trkpt lat="42.50577" lon="2.21436">
        <ele>1559</ele>
        <time>2019-04-19T12:49:40Z</time>
      </trkpt>
      <trkpt lat="42.50567" lon="2.21435">
        <ele>1561</ele>
        <time>2019-04-19T12:49:52Z</time>
      </trkpt>
      <trkpt lat="42.50558" lon="2.21441">
        <ele>1563</ele>
        <time>2019-04-19T12:50:02Z</time>
      </trkpt>
      <trkpt lat="42.50549" lon="2.21436">
        <ele>1563</ele>
        <time>2019-04-19T12:50:13Z</time>
      </trkpt>
      <trkpt lat="42.5054" lon="2.21435">
        <ele>1564</ele>
        <time>2019-04-19T12:50:34Z</time>
      </trkpt>
      <trkpt lat="42.50532" lon="2.21441">
        <ele>1565</ele>
        <time>2019-04-19T12:50:44Z</time>
      </trkpt>
      <trkpt lat="42.50523" lon="2.21444">
        <ele>1566</ele>
        <time>2019-04-19T12:50:56Z</time>
      </trkpt>
      <trkpt lat="42.50517" lon="2.21453">
        <ele>1568</ele>
        <time>2019-04-19T12:51:13Z</time>
      </trkpt>
      <trkpt lat="42.50509" lon="2.21459">
        <ele>1570</ele>
        <time>2019-04-19T12:51:26Z</time>
      </trkpt>
      <trkpt lat="42.50499" lon="2.21458">
        <ele>1571</ele>
        <time>2019-04-19T12:51:38Z</time>
      </trkpt>
      <trkpt lat="42.50489" lon="2.21453">
        <ele>1572</ele>
        <time>2019-04-19T12:51:47Z</time>
      </trkpt>
      <trkpt lat="42.5048" lon="2.21453">
        <ele>1572</ele>
        <time>2019-04-19T12:51:52Z</time>
      </trkpt>
      <trkpt lat="42.50471" lon="2.21451">
        <ele>1572</ele>
        <time>2019-04-19T12:52:04Z</time>
      </trkpt>
      <trkpt lat="42.50462" lon="2.21458">
        <ele>1574</ele>
        <time>2019-04-19T12:52:13Z</time>
      </trkpt>
      <trkpt lat="42.50454" lon="2.21453">
        <ele>1574</ele>
        <time>2019-04-19T12:52:21Z</time>
      </trkpt>
      <trkpt lat="42.50444" lon="2.21456">
        <ele>1574</ele>
        <time>2019-04-19T12:52:37Z</time>
      </trkpt>
      <trkpt lat="42.50435" lon="2.21451">
        <ele>1576</ele>
        <time>2019-04-19T12:52:47Z</time>
      </trkpt>
      <trkpt lat="42.50426" lon="2.21448">
        <ele>1576</ele>
        <time>2019-04-19T12:52:54Z</time>
      </trkpt>
      <trkpt lat="42.50421" lon="2.21437">
        <ele>1577</ele>
        <time>2019-04-19T12:53:09Z</time>
      </trkpt>
      <trkpt lat="42.50412" lon="2.21434">
        <ele>1577</ele>
        <time>2019-04-19T12:53:17Z</time>
      </trkpt>
      <trkpt lat="42.50403" lon="2.21434">
        <ele>1578</ele>
        <time>2019-04-19T12:53:35Z</time>
      </trkpt>
      <trkpt lat="42.50394" lon="2.21437">
        <ele>1579</ele>
        <time>2019-04-19T12:53:46Z</time>
      </trkpt>
      <trkpt lat="42.50384" lon="2.21436">
        <ele>1580</ele>
        <time>2019-04-19T12:53:56Z</time>
      </trkpt>
      <trkpt lat="42.50375" lon="2.21431">
        <ele>1581</ele>
        <time>2019-04-19T12:54:06Z</time>
      </trkpt>
      <trkpt lat="42.50366" lon="2.21425">
        <ele>1580</ele>
        <time>2019-04-19T12:54:19Z</time>
      </trkpt>
      <trkpt lat="42.50359" lon="2.21417">
        <ele>1580</ele>
        <time>2019-04-19T12:54:33Z</time>
      </trkpt>
      <trkpt lat="42.5035" lon="2.21412">
        <ele>1581</ele>
        <time>2019-04-19T12:54:39Z</time>
      </trkpt>
      <trkpt lat="42.50343" lon="2.21405">
        <ele>1581</ele>
        <time>2019-04-19T12:54:48Z</time>
      </trkpt>
      <trkpt lat="42.50334" lon="2.214">
        <ele>1583</ele>
        <time>2019-04-19T12:54:54Z</time>
      </trkpt>
      <trkpt lat="42.50327" lon="2.21391">
        <ele>1583</ele>
        <time>2019-04-19T12:55:08Z</time>
      </trkpt>
      <trkpt lat="42.50319" lon="2.21385">
        <ele>1584</ele>
        <time>2019-04-19T12:55:15Z</time>
      </trkpt>
      <trkpt lat="42.50316" lon="2.21373">
        <ele>1585</ele>
        <time>2019-04-19T12:55:24Z</time>
      </trkpt>
      <trkpt lat="42.50309" lon="2.21364">
        <ele>1585</ele>
        <time>2019-04-19T12:55:39Z</time>
      </trkpt>
      <trkpt lat="42.50301" lon="2.21358">
        <ele>1587</ele>
        <time>2019-04-19T12:55:45Z</time>
      </trkpt>
      <trkpt lat="42.50294" lon="2.2135">
        <ele>1586</ele>
        <time>2019-04-19T12:55:54Z</time>
      </trkpt>
      <trkpt lat="42.50284" lon="2.21353">
        <ele>1584</ele>
        <time>2019-04-19T12:56:02Z</time>
      </trkpt>
      <trkpt lat="42.50296" lon="2.21351">
        <ele>1587</ele>
        <time>2019-04-19T12:56:21Z</time>
      </trkpt>
      <trkpt lat="42.50307" lon="2.21361">
        <ele>1586</ele>
        <time>2019-04-19T12:56:27Z</time>
      </trkpt>
      <trkpt lat="42.50293" lon="2.21367">
        <ele>1587</ele>
        <time>2019-04-19T12:56:37Z</time>
      </trkpt>
      <trkpt lat="42.50285" lon="2.21383">
        <ele>1586</ele>
        <time>2019-04-19T12:56:43Z</time>
      </trkpt>
      <trkpt lat="42.50276" lon="2.2139">
        <ele>1597</ele>
        <time>2019-04-19T12:57:09Z</time>
      </trkpt>
      <trkpt lat="42.50268" lon="2.21375">
        <ele>1602</ele>
        <time>2019-04-19T12:57:15Z</time>
      </trkpt>
      <trkpt lat="42.50294" lon="2.21357">
        <ele>1604</ele>
        <time>2019-04-19T12:57:21Z</time>
      </trkpt>
      <trkpt lat="42.50301" lon="2.21368">
        <ele>1603</ele>
        <time>2019-04-19T12:57:31Z</time>
      </trkpt>
      <trkpt lat="42.50291" lon="2.21363">
        <ele>1610</ele>
        <time>2019-04-19T12:57:45Z</time>
      </trkpt>
      <trkpt lat="42.50291" lon="2.21339">
        <ele>1610</ele>
        <time>2019-04-19T12:57:53Z</time>
      </trkpt>
      <trkpt lat="42.50282" lon="2.21343">
        <ele>1610</ele>
        <time>2019-04-19T12:58:05Z</time>
      </trkpt>
      <trkpt lat="42.50275" lon="2.21351">
        <ele>1609</ele>
        <time>2019-04-19T12:58:13Z</time>
      </trkpt>
      <trkpt lat="42.50268" lon="2.2136">
        <ele>1608</ele>
        <time>2019-04-19T12:58:19Z</time>
      </trkpt>
      <trkpt lat="42.50277" lon="2.2135">
        <ele>1611</ele>
        <time>2019-04-19T12:58:25Z</time>
      </trkpt>
      <trkpt lat="42.50273" lon="2.21338">
        <ele>1611</ele>
        <time>2019-04-19T12:58:30Z</time>
      </trkpt>
      <trkpt lat="42.50278" lon="2.21327">
        <ele>1610</ele>
        <time>2019-04-19T12:58:45Z</time>
      </trkpt>
      <trkpt lat="42.50281" lon="2.21314">
        <ele>1610</ele>
        <time>2019-04-19T12:58:51Z</time>
      </trkpt>
      <trkpt lat="42.50292" lon="2.21308">
        <ele>1611</ele>
        <time>2019-04-19T12:59:42Z</time>
      </trkpt>
      <trkpt lat="42.503" lon="2.21304">
        <ele>1609</ele>
        <time>2019-04-19T12:59:56Z</time>
      </trkpt>
      <trkpt lat="42.5031" lon="2.21282">
        <ele>1608</ele>
        <time>2019-04-19T13:00:09Z</time>
      </trkpt>
      <trkpt lat="42.50304" lon="2.21269">
        <ele>1608</ele>
        <time>2019-04-19T13:00:15Z</time>
      </trkpt>
      <trkpt lat="42.50304" lon="2.21257">
        <ele>1609</ele>
        <time>2019-04-19T13:00:20Z</time>
      </trkpt>
      <trkpt lat="42.50313" lon="2.21257">
        <ele>1609</ele>
        <time>2019-04-19T13:00:28Z</time>
      </trkpt>
      <trkpt lat="42.5032" lon="2.21247">
        <ele>1610</ele>
        <time>2019-04-19T13:00:34Z</time>
      </trkpt>
      <trkpt lat="42.50324" lon="2.21235">
        <ele>1609</ele>
        <time>2019-04-19T13:00:45Z</time>
      </trkpt>
      <trkpt lat="42.50326" lon="2.21222">
        <ele>1610</ele>
        <time>2019-04-19T13:00:54Z</time>
      </trkpt>
      <trkpt lat="42.50331" lon="2.21211">
        <ele>1609</ele>
        <time>2019-04-19T13:01:04Z</time>
      </trkpt>
      <trkpt lat="42.50339" lon="2.21205">
        <ele>1608</ele>
        <time>2019-04-19T13:01:12Z</time>
      </trkpt>
      <trkpt lat="42.50346" lon="2.21196">
        <ele>1607</ele>
        <time>2019-04-19T13:01:24Z</time>
      </trkpt>
      <trkpt lat="42.5036" lon="2.2118">
        <ele>1605</ele>
        <time>2019-04-19T13:03:21Z</time>
      </trkpt>
      <trkpt lat="42.50365" lon="2.21167">
        <ele>1605</ele>
        <time>2019-04-19T13:03:27Z</time>
      </trkpt>
      <trkpt lat="42.5038" lon="2.21153">
        <ele>1599</ele>
        <time>2019-04-19T13:03:41Z</time>
      </trkpt>
      <trkpt lat="42.50382" lon="2.2114">
        <ele>1600</ele>
        <time>2019-04-19T13:03:55Z</time>
      </trkpt>
      <trkpt lat="42.50387" lon="2.21129">
        <ele>1598</ele>
        <time>2019-04-19T13:04:07Z</time>
      </trkpt>
      <trkpt lat="42.50392" lon="2.21118">
        <ele>1597</ele>
        <time>2019-04-19T13:04:12Z</time>
      </trkpt>
      <trkpt lat="42.50392" lon="2.21104">
        <ele>1598</ele>
        <time>2019-04-19T13:04:20Z</time>
      </trkpt>
      <trkpt lat="42.50393" lon="2.21091">
        <ele>1597</ele>
        <time>2019-04-19T13:04:29Z</time>
      </trkpt>
      <trkpt lat="42.50391" lon="2.21079">
        <ele>1598</ele>
        <time>2019-04-19T13:04:43Z</time>
      </trkpt>
      <trkpt lat="42.50394" lon="2.21067">
        <ele>1599</ele>
        <time>2019-04-19T13:04:52Z</time>
      </trkpt>
      <trkpt lat="42.50396" lon="2.21054">
        <ele>1599</ele>
        <time>2019-04-19T13:04:59Z</time>
      </trkpt>
      <trkpt lat="42.50394" lon="2.21042">
        <ele>1597</ele>
        <time>2019-04-19T13:05:11Z</time>
      </trkpt>
      <trkpt lat="42.50392" lon="2.21029">
        <ele>1597</ele>
        <time>2019-04-19T13:05:20Z</time>
      </trkpt>
      <trkpt lat="42.50394" lon="2.21016">
        <ele>1597</ele>
        <time>2019-04-19T13:05:28Z</time>
      </trkpt>
      <trkpt lat="42.50395" lon="2.21004">
        <ele>1597</ele>
        <time>2019-04-19T13:05:37Z</time>
      </trkpt>
      <trkpt lat="42.50401" lon="2.20995">
        <ele>1595</ele>
        <time>2019-04-19T13:05:45Z</time>
      </trkpt>
      <trkpt lat="42.50408" lon="2.20986">
        <ele>1596</ele>
        <time>2019-04-19T13:05:53Z</time>
      </trkpt>
      <trkpt lat="42.50413" lon="2.20975">
        <ele>1594</ele>
        <time>2019-04-19T13:06:05Z</time>
      </trkpt>
      <trkpt lat="42.50417" lon="2.20963">
        <ele>1591</ele>
        <time>2019-04-19T13:06:14Z</time>
      </trkpt>
      <trkpt lat="42.50423" lon="2.20953">
        <ele>1591</ele>
        <time>2019-04-19T13:06:25Z</time>
      </trkpt>
      <trkpt lat="42.50432" lon="2.20946">
        <ele>1590</ele>
        <time>2019-04-19T13:06:32Z</time>
      </trkpt>
      <trkpt lat="42.50436" lon="2.20936">
        <ele>1590</ele>
        <time>2019-04-19T13:06:42Z</time>
      </trkpt>
      <trkpt lat="42.50439" lon="2.20924">
        <ele>1590</ele>
        <time>2019-04-19T13:06:49Z</time>
      </trkpt>
      <trkpt lat="42.50447" lon="2.20919">
        <ele>1588</ele>
        <time>2019-04-19T13:06:59Z</time>
      </trkpt>
      <trkpt lat="42.50455" lon="2.20911">
        <ele>1586</ele>
        <time>2019-04-19T13:07:11Z</time>
      </trkpt>
      <trkpt lat="42.50463" lon="2.20905">
        <ele>1586</ele>
        <time>2019-04-19T13:07:20Z</time>
      </trkpt>
      <trkpt lat="42.50471" lon="2.20891">
        <ele>1584</ele>
        <time>2019-04-19T13:08:00Z</time>
      </trkpt>
      <trkpt lat="42.5048" lon="2.20887">
        <ele>1582</ele>
        <time>2019-04-19T13:08:18Z</time>
      </trkpt>
      <trkpt lat="42.50489" lon="2.2089">
        <ele>1582</ele>
        <time>2019-04-19T13:08:28Z</time>
      </trkpt>
      <trkpt lat="42.50499" lon="2.20891">
        <ele>1581</ele>
        <time>2019-04-19T13:08:37Z</time>
      </trkpt>
      <trkpt lat="42.50508" lon="2.20891">
        <ele>1575</ele>
        <time>2019-04-19T13:08:56Z</time>
      </trkpt>
      <trkpt lat="42.50512" lon="2.20879">
        <ele>1573</ele>
        <time>2019-04-19T13:09:05Z</time>
      </trkpt>
      <trkpt lat="42.5052" lon="2.20871">
        <ele>1572</ele>
        <time>2019-04-19T13:09:13Z</time>
      </trkpt>
      <trkpt lat="42.50529" lon="2.20865">
        <ele>1570</ele>
        <time>2019-04-19T13:09:23Z</time>
      </trkpt>
      <trkpt lat="42.50537" lon="2.20859">
        <ele>1567</ele>
        <time>2019-04-19T13:09:38Z</time>
      </trkpt>
      <trkpt lat="42.50546" lon="2.20854">
        <ele>1563</ele>
        <time>2019-04-19T13:09:55Z</time>
      </trkpt>
      <trkpt lat="42.50554" lon="2.2085">
        <ele>1561</ele>
        <time>2019-04-19T13:10:10Z</time>
      </trkpt>
      <trkpt lat="42.50553" lon="2.20838">
        <ele>1560</ele>
        <time>2019-04-19T13:10:21Z</time>
      </trkpt>
      <trkpt lat="42.50548" lon="2.20828">
        <ele>1557</ele>
        <time>2019-04-19T13:10:33Z</time>
      </trkpt>
      <trkpt lat="42.50541" lon="2.20818">
        <ele>1554</ele>
        <time>2019-04-19T13:10:53Z</time>
      </trkpt>
      <trkpt lat="42.50545" lon="2.20807">
        <ele>1551</ele>
        <time>2019-04-19T13:11:08Z</time>
      </trkpt>
      <trkpt lat="42.50553" lon="2.20802">
        <ele>1548</ele>
        <time>2019-04-19T13:11:16Z</time>
      </trkpt>
      <trkpt lat="42.50558" lon="2.20791">
        <ele>1544</ele>
        <time>2019-04-19T13:11:34Z</time>
      </trkpt>
      <trkpt lat="42.50558" lon="2.20779">
        <ele>1540</ele>
        <time>2019-04-19T13:11:52Z</time>
      </trkpt>
      <trkpt lat="42.50567" lon="2.20778">
        <ele>1538</ele>
        <time>2019-04-19T13:12:04Z</time>
      </trkpt>
      <trkpt lat="42.50575" lon="2.20783">
        <ele>1534</ele>
        <time>2019-04-19T13:12:13Z</time>
      </trkpt>
      <trkpt lat="42.50584" lon="2.20788">
        <ele>1531</ele>
        <time>2019-04-19T13:12:32Z</time>
      </trkpt>
      <trkpt lat="42.50592" lon="2.20793">
        <ele>1530</ele>
        <time>2019-04-19T13:12:45Z</time>
      </trkpt>
      <trkpt lat="42.50603" lon="2.20793">
        <ele>1526</ele>
        <time>2019-04-19T13:13:07Z</time>
      </trkpt>
      <trkpt lat="42.50612" lon="2.20792">
        <ele>1523</ele>
        <time>2019-04-19T13:13:24Z</time>
      </trkpt>
      <trkpt lat="42.50622" lon="2.20793">
        <ele>1520</ele>
        <time>2019-04-19T13:13:36Z</time>
      </trkpt>
      <trkpt lat="42.50631" lon="2.20795">
        <ele>1517</ele>
        <time>2019-04-19T13:13:50Z</time>
      </trkpt>
      <trkpt lat="42.5064" lon="2.20794">
        <ele>1513</ele>
        <time>2019-04-19T13:14:05Z</time>
      </trkpt>
      <trkpt lat="42.50649" lon="2.20799">
        <ele>1510</ele>
        <time>2019-04-19T13:14:20Z</time>
      </trkpt>
      <trkpt lat="42.50657" lon="2.20806">
        <ele>1505</ele>
        <time>2019-04-19T13:14:40Z</time>
      </trkpt>
      <trkpt lat="42.50666" lon="2.2081">
        <ele>1500</ele>
        <time>2019-04-19T13:14:53Z</time>
      </trkpt>
      <trkpt lat="42.50674" lon="2.20816">
        <ele>1497</ele>
        <time>2019-04-19T13:15:04Z</time>
      </trkpt>
      <trkpt lat="42.5068" lon="2.20827">
        <ele>1494</ele>
        <time>2019-04-19T13:15:18Z</time>
      </trkpt>
      <trkpt lat="42.50689" lon="2.20833">
        <ele>1491</ele>
        <time>2019-04-19T13:15:28Z</time>
      </trkpt>
      <trkpt lat="42.50695" lon="2.20841">
        <ele>1485</ele>
        <time>2019-04-19T13:15:50Z</time>
      </trkpt>
      <trkpt lat="42.50703" lon="2.20847">
        <ele>1480</ele>
        <time>2019-04-19T13:16:01Z</time>
      </trkpt>
      <trkpt lat="42.50707" lon="2.20836">
        <ele>1475</ele>
        <time>2019-04-19T13:16:28Z</time>
      </trkpt>
      <trkpt lat="42.50715" lon="2.2083">
        <ele>1473</ele>
        <time>2019-04-19T13:16:38Z</time>
      </trkpt>
      <trkpt lat="42.50719" lon="2.20819">
        <ele>1470</ele>
        <time>2019-04-19T13:16:50Z</time>
      </trkpt>
      <trkpt lat="42.50725" lon="2.2081">
        <ele>1468</ele>
        <time>2019-04-19T13:17:05Z</time>
      </trkpt>
      <trkpt lat="42.5073" lon="2.20799">
        <ele>1466</ele>
        <time>2019-04-19T13:17:20Z</time>
      </trkpt>
      <trkpt lat="42.50737" lon="2.20791">
        <ele>1464</ele>
        <time>2019-04-19T13:17:38Z</time>
      </trkpt>
      <trkpt lat="42.50749" lon="2.20787">
        <ele>1456</ele>
        <time>2019-04-19T13:18:17Z</time>
      </trkpt>
      <trkpt lat="42.50749" lon="2.20775">
        <ele>1453</ele>
        <time>2019-04-19T13:18:39Z</time>
      </trkpt>
      <trkpt lat="42.50758" lon="2.20771">
        <ele>1450</ele>
        <time>2019-04-19T13:19:01Z</time>
      </trkpt>
      <trkpt lat="42.50761" lon="2.2076">
        <ele>1448</ele>
        <time>2019-04-19T13:19:15Z</time>
      </trkpt>
      <trkpt lat="42.50763" lon="2.20747">
        <ele>1445</ele>
        <time>2019-04-19T13:19:29Z</time>
      </trkpt>
      <trkpt lat="42.50762" lon="2.20735">
        <ele>1445</ele>
        <time>2019-04-19T13:19:41Z</time>
      </trkpt>
      <trkpt lat="42.50776" lon="2.20743">
        <ele>1439</ele>
        <time>2019-04-19T13:20:21Z</time>
      </trkpt>
      <trkpt lat="42.5078" lon="2.20754">
        <ele>1435</ele>
        <time>2019-04-19T13:20:30Z</time>
      </trkpt>
      <trkpt lat="42.5079" lon="2.20759">
        <ele>1434</ele>
        <time>2019-04-19T13:20:42Z</time>
      </trkpt>
      <trkpt lat="42.50799" lon="2.20762">
        <ele>1431</ele>
        <time>2019-04-19T13:21:18Z</time>
      </trkpt>
      <trkpt lat="42.50808" lon="2.20755">
        <ele>1426</ele>
        <time>2019-04-19T13:21:29Z</time>
      </trkpt>
      <trkpt lat="42.50817" lon="2.20754">
        <ele>1422</ele>
        <time>2019-04-19T13:21:41Z</time>
      </trkpt>
      <trkpt lat="42.50827" lon="2.20753">
        <ele>1419</ele>
        <time>2019-04-19T13:21:57Z</time>
      </trkpt>
      <trkpt lat="42.50836" lon="2.20748">
        <ele>1417</ele>
        <time>2019-04-19T13:22:06Z</time>
      </trkpt>
      <trkpt lat="42.50845" lon="2.20743">
        <ele>1416</ele>
        <time>2019-04-19T13:22:13Z</time>
      </trkpt>
      <trkpt lat="42.50854" lon="2.20742">
        <ele>1414</ele>
        <time>2019-04-19T13:22:22Z</time>
      </trkpt>
      <trkpt lat="42.50864" lon="2.20738">
        <ele>1414</ele>
        <time>2019-04-19T13:22:31Z</time>
      </trkpt>
      <trkpt lat="42.5087" lon="2.20729">
        <ele>1413</ele>
        <time>2019-04-19T13:22:42Z</time>
      </trkpt>
      <trkpt lat="42.50877" lon="2.20721">
        <ele>1411</ele>
        <time>2019-04-19T13:22:52Z</time>
      </trkpt>
      <trkpt lat="42.50884" lon="2.20713">
        <ele>1410</ele>
        <time>2019-04-19T13:23:01Z</time>
      </trkpt>
      <trkpt lat="42.50891" lon="2.20705">
        <ele>1410</ele>
        <time>2019-04-19T13:23:10Z</time>
      </trkpt>
      <trkpt lat="42.50898" lon="2.20695">
        <ele>1409</ele>
        <time>2019-04-19T13:23:19Z</time>
      </trkpt>
      <trkpt lat="42.50906" lon="2.2069">
        <ele>1406</ele>
        <time>2019-04-19T13:23:29Z</time>
      </trkpt>
      <trkpt lat="42.50914" lon="2.20683">
        <ele>1406</ele>
        <time>2019-04-19T13:23:47Z</time>
      </trkpt>
      <trkpt lat="42.50923" lon="2.20681">
        <ele>1404</ele>
        <time>2019-04-19T13:23:55Z</time>
      </trkpt>
      <trkpt lat="42.50933" lon="2.20683">
        <ele>1404</ele>
        <time>2019-04-19T13:24:04Z</time>
      </trkpt>
      <trkpt lat="42.50943" lon="2.20683">
        <ele>1403</ele>
        <time>2019-04-19T13:24:12Z</time>
      </trkpt>
      <trkpt lat="42.50952" lon="2.20683">
        <ele>1403</ele>
        <time>2019-04-19T13:24:20Z</time>
      </trkpt>
      <trkpt lat="42.50962" lon="2.2068">
        <ele>1403</ele>
        <time>2019-04-19T13:24:27Z</time>
      </trkpt>
      <trkpt lat="42.5097" lon="2.20674">
        <ele>1402</ele>
        <time>2019-04-19T13:24:35Z</time>
      </trkpt>
      <trkpt lat="42.50978" lon="2.20668">
        <ele>1401</ele>
        <time>2019-04-19T13:24:45Z</time>
      </trkpt>
      <trkpt lat="42.50994" lon="2.20658">
        <ele>1401</ele>
        <time>2019-04-19T13:25:26Z</time>
      </trkpt>
      <trkpt lat="42.51003" lon="2.20653">
        <ele>1400</ele>
        <time>2019-04-19T13:25:35Z</time>
      </trkpt>
      <trkpt lat="42.51011" lon="2.20647">
        <ele>1400</ele>
        <time>2019-04-19T13:25:44Z</time>
      </trkpt>
      <trkpt lat="42.5102" lon="2.20642">
        <ele>1399</ele>
        <time>2019-04-19T13:25:59Z</time>
      </trkpt>
      <trkpt lat="42.51029" lon="2.20638">
        <ele>1397</ele>
        <time>2019-04-19T13:26:09Z</time>
      </trkpt>
      <trkpt lat="42.51037" lon="2.20632">
        <ele>1396</ele>
        <time>2019-04-19T13:26:19Z</time>
      </trkpt>
      <trkpt lat="42.51043" lon="2.20622">
        <ele>1393</ele>
        <time>2019-04-19T13:26:43Z</time>
      </trkpt>
      <trkpt lat="42.51049" lon="2.20611">
        <ele>1392</ele>
        <time>2019-04-19T13:27:00Z</time>
      </trkpt>
      <trkpt lat="42.51059" lon="2.20614">
        <ele>1388</ele>
        <time>2019-04-19T13:27:52Z</time>
      </trkpt>
      <trkpt lat="42.51061" lon="2.20603">
        <ele>1381</ele>
        <time>2019-04-19T13:29:11Z</time>
      </trkpt>
      <trkpt lat="42.51069" lon="2.20597">
        <ele>1378</ele>
        <time>2019-04-19T13:30:09Z</time>
      </trkpt>
      <trkpt lat="42.51078" lon="2.20597">
        <ele>1377</ele>
        <time>2019-04-19T13:30:17Z</time>
      </trkpt>
      <trkpt lat="42.51082" lon="2.20586">
        <ele>1372</ele>
        <time>2019-04-19T13:32:05Z</time>
      </trkpt>
      <trkpt lat="42.51088" lon="2.20575">
        <ele>1370</ele>
        <time>2019-04-19T13:32:44Z</time>
      </trkpt>
      <trkpt lat="42.51089" lon="2.20588">
        <ele>1368</ele>
        <time>2019-04-19T13:33:28Z</time>
      </trkpt>
      <trkpt lat="42.51087" lon="2.20601">
        <ele>1367</ele>
        <time>2019-04-19T13:33:38Z</time>
      </trkpt>
      <trkpt lat="42.5109" lon="2.20613">
        <ele>1367</ele>
        <time>2019-04-19T13:33:47Z</time>
      </trkpt>
      <trkpt lat="42.51096" lon="2.20624">
        <ele>1366</ele>
        <time>2019-04-19T13:33:57Z</time>
      </trkpt>
      <trkpt lat="42.51101" lon="2.20635">
        <ele>1366</ele>
        <time>2019-04-19T13:34:06Z</time>
      </trkpt>
      <trkpt lat="42.51105" lon="2.20647">
        <ele>1367</ele>
        <time>2019-04-19T13:34:15Z</time>
      </trkpt>
      <trkpt lat="42.5111" lon="2.20657">
        <ele>1367</ele>
        <time>2019-04-19T13:34:24Z</time>
      </trkpt>
      <trkpt lat="42.51119" lon="2.20664">
        <ele>1367</ele>
        <time>2019-04-19T13:34:32Z</time>
      </trkpt>
      <trkpt lat="42.51127" lon="2.20671">
        <ele>1367</ele>
        <time>2019-04-19T13:34:42Z</time>
      </trkpt>
      <trkpt lat="42.51136" lon="2.20677">
        <ele>1367</ele>
        <time>2019-04-19T13:34:50Z</time>
      </trkpt>
      <trkpt lat="42.51145" lon="2.20679">
        <ele>1366</ele>
        <time>2019-04-19T13:34:59Z</time>
      </trkpt>
      <trkpt lat="42.51155" lon="2.20684">
        <ele>1366</ele>
        <time>2019-04-19T13:35:08Z</time>
      </trkpt>
      <trkpt lat="42.51161" lon="2.20694">
        <ele>1365</ele>
        <time>2019-04-19T13:35:18Z</time>
      </trkpt>
      <trkpt lat="42.51164" lon="2.20705">
        <ele>1364</ele>
        <time>2019-04-19T13:35:28Z</time>
      </trkpt>
      <trkpt lat="42.51171" lon="2.20715">
        <ele>1364</ele>
        <time>2019-04-19T13:35:37Z</time>
      </trkpt>
      <trkpt lat="42.51177" lon="2.20724">
        <ele>1361</ele>
        <time>2019-04-19T13:35:49Z</time>
      </trkpt>
      <trkpt lat="42.51186" lon="2.2073">
        <ele>1361</ele>
        <time>2019-04-19T13:35:58Z</time>
      </trkpt>
      <trkpt lat="42.51196" lon="2.20731">
        <ele>1360</ele>
        <time>2019-04-19T13:36:08Z</time>
      </trkpt>
      <trkpt lat="42.51205" lon="2.20726">
        <ele>1360</ele>
        <time>2019-04-19T13:36:17Z</time>
      </trkpt>
      <trkpt lat="42.51214" lon="2.2072">
        <ele>1359</ele>
        <time>2019-04-19T13:36:26Z</time>
      </trkpt>
      <trkpt lat="42.51223" lon="2.20723">
        <ele>1357</ele>
        <time>2019-04-19T13:38:23Z</time>
      </trkpt>
      <trkpt lat="42.51231" lon="2.2073">
        <ele>1355</ele>
        <time>2019-04-19T13:38:32Z</time>
      </trkpt>
      <trkpt lat="42.51239" lon="2.20739">
        <ele>1354</ele>
        <time>2019-04-19T13:38:41Z</time>
      </trkpt>
      <trkpt lat="42.51245" lon="2.20749">
        <ele>1352</ele>
        <time>2019-04-19T13:38:50Z</time>
      </trkpt>
      <trkpt lat="42.5125" lon="2.20759">
        <ele>1350</ele>
        <time>2019-04-19T13:39:01Z</time>
      </trkpt>
      <trkpt lat="42.51253" lon="2.20772">
        <ele>1347</ele>
        <time>2019-04-19T13:39:24Z</time>
      </trkpt>
      <trkpt lat="42.51262" lon="2.20778">
        <ele>1343</ele>
        <time>2019-04-19T13:39:40Z</time>
      </trkpt>
      <trkpt lat="42.51271" lon="2.20777">
        <ele>1341</ele>
        <time>2019-04-19T13:39:50Z</time>
      </trkpt>
      <trkpt lat="42.51279" lon="2.20772">
        <ele>1339</ele>
        <time>2019-04-19T13:40:02Z</time>
      </trkpt>
      <trkpt lat="42.51288" lon="2.20775">
        <ele>1337</ele>
        <time>2019-04-19T13:40:11Z</time>
      </trkpt>
      <trkpt lat="42.51298" lon="2.20779">
        <ele>1337</ele>
        <time>2019-04-19T13:40:20Z</time>
      </trkpt>
      <trkpt lat="42.51307" lon="2.20777">
        <ele>1335</ele>
        <time>2019-04-19T13:40:28Z</time>
      </trkpt>
      <trkpt lat="42.51316" lon="2.20777">
        <ele>1333</ele>
        <time>2019-04-19T13:40:37Z</time>
      </trkpt>
      <trkpt lat="42.51326" lon="2.20773">
        <ele>1332</ele>
        <time>2019-04-19T13:40:48Z</time>
      </trkpt>
      <trkpt lat="42.51327" lon="2.20761">
        <ele>1330</ele>
        <time>2019-04-19T13:41:01Z</time>
      </trkpt>
      <trkpt lat="42.51332" lon="2.20749">
        <ele>1328</ele>
        <time>2019-04-19T13:41:12Z</time>
      </trkpt>
      <trkpt lat="42.51341" lon="2.20745">
        <ele>1325</ele>
        <time>2019-04-19T13:41:25Z</time>
      </trkpt>
      <trkpt lat="42.51349" lon="2.20752">
        <ele>1322</ele>
        <time>2019-04-19T13:41:34Z</time>
      </trkpt>
      <trkpt lat="42.51356" lon="2.20761">
        <ele>1320</ele>
        <time>2019-04-19T13:41:48Z</time>
      </trkpt>
      <trkpt lat="42.51362" lon="2.2077">
        <ele>1319</ele>
        <time>2019-04-19T13:42:01Z</time>
      </trkpt>
      <trkpt lat="42.51368" lon="2.2078">
        <ele>1318</ele>
        <time>2019-04-19T13:42:19Z</time>
      </trkpt>
      <trkpt lat="42.51375" lon="2.20789">
        <ele>1316</ele>
        <time>2019-04-19T13:42:30Z</time>
      </trkpt>
      <trkpt lat="42.51378" lon="2.20801">
        <ele>1313</ele>
        <time>2019-04-19T13:42:44Z</time>
      </trkpt>
      <trkpt lat="42.51383" lon="2.2079">
        <ele>1310</ele>
        <time>2019-04-19T13:43:19Z</time>
      </trkpt>
      <trkpt lat="42.51383" lon="2.20776">
        <ele>1309</ele>
        <time>2019-04-19T13:43:29Z</time>
      </trkpt>
      <trkpt lat="42.51392" lon="2.20779">
        <ele>1305</ele>
        <time>2019-04-19T13:43:48Z</time>
      </trkpt>
      <trkpt lat="42.51395" lon="2.20791">
        <ele>1303</ele>
        <time>2019-04-19T13:43:58Z</time>
      </trkpt>
      <trkpt lat="42.51394" lon="2.20804">
        <ele>1301</ele>
        <time>2019-04-19T13:44:11Z</time>
      </trkpt>
      <trkpt lat="42.514" lon="2.20814">
        <ele>1295</ele>
        <time>2019-04-19T13:44:29Z</time>
      </trkpt>
      <trkpt lat="42.51398" lon="2.20827">
        <ele>1292</ele>
        <time>2019-04-19T13:44:40Z</time>
      </trkpt>
      <trkpt lat="42.51404" lon="2.20817">
        <ele>1289</ele>
        <time>2019-04-19T13:44:54Z</time>
      </trkpt>
      <trkpt lat="42.51405" lon="2.20831">
        <ele>1286</ele>
        <time>2019-04-19T13:45:11Z</time>
      </trkpt>
      <trkpt lat="42.51401" lon="2.20842">
        <ele>1282</ele>
        <time>2019-04-19T13:45:28Z</time>
      </trkpt>
      <trkpt lat="42.5141" lon="2.20842">
        <ele>1279</ele>
        <time>2019-04-19T13:45:39Z</time>
      </trkpt>
      <trkpt lat="42.51419" lon="2.20835">
        <ele>1278</ele>
        <time>2019-04-19T13:45:47Z</time>
      </trkpt>
      <trkpt lat="42.51427" lon="2.20829">
        <ele>1276</ele>
        <time>2019-04-19T13:46:03Z</time>
      </trkpt>
      <trkpt lat="42.51433" lon="2.20839">
        <ele>1272</ele>
        <time>2019-04-19T13:46:21Z</time>
      </trkpt>
      <trkpt lat="42.5144" lon="2.20832">
        <ele>1269</ele>
        <time>2019-04-19T13:46:39Z</time>
      </trkpt>
      <trkpt lat="42.51448" lon="2.20825">
        <ele>1266</ele>
        <time>2019-04-19T13:47:04Z</time>
      </trkpt>
      <trkpt lat="42.51445" lon="2.20813">
        <ele>1265</ele>
        <time>2019-04-19T13:47:12Z</time>
      </trkpt>
      <trkpt lat="42.51455" lon="2.20811">
        <ele>1262</ele>
        <time>2019-04-19T13:47:30Z</time>
      </trkpt>
      <trkpt lat="42.51456" lon="2.20798">
        <ele>1258</ele>
        <time>2019-04-19T13:47:54Z</time>
      </trkpt>
      <trkpt lat="42.51456" lon="2.20786">
        <ele>1258</ele>
        <time>2019-04-19T13:48:02Z</time>
      </trkpt>
      <trkpt lat="42.5146" lon="2.20774">
        <ele>1253</ele>
        <time>2019-04-19T13:48:22Z</time>
      </trkpt>
      <trkpt lat="42.51465" lon="2.20766">
        <ele>1247</ele>
        <time>2019-04-19T13:49:02Z</time>
      </trkpt>
      <trkpt lat="42.51472" lon="2.20774">
        <ele>1246</ele>
        <time>2019-04-19T13:49:12Z</time>
      </trkpt>
      <trkpt lat="42.51477" lon="2.20785">
        <ele>1244</ele>
        <time>2019-04-19T13:49:22Z</time>
      </trkpt>
      <trkpt lat="42.51482" lon="2.20773">
        <ele>1240</ele>
        <time>2019-04-19T13:49:47Z</time>
      </trkpt>
      <trkpt lat="42.51491" lon="2.2077">
        <ele>1232</ele>
        <time>2019-04-19T13:50:32Z</time>
      </trkpt>
      <trkpt lat="42.515" lon="2.2077">
        <ele>1229</ele>
        <time>2019-04-19T13:50:51Z</time>
      </trkpt>
      <trkpt lat="42.51503" lon="2.20782">
        <ele>1227</ele>
        <time>2019-04-19T13:51:05Z</time>
      </trkpt>
      <trkpt lat="42.51505" lon="2.20794">
        <ele>1224</ele>
        <time>2019-04-19T13:51:16Z</time>
      </trkpt>
      <trkpt lat="42.51509" lon="2.20784">
        <ele>1223</ele>
        <time>2019-04-19T13:51:31Z</time>
      </trkpt>
      <trkpt lat="42.51511" lon="2.20796">
        <ele>1220</ele>
        <time>2019-04-19T13:51:47Z</time>
      </trkpt>
      <trkpt lat="42.51515" lon="2.20808">
        <ele>1218</ele>
        <time>2019-04-19T13:51:59Z</time>
      </trkpt>
      <trkpt lat="42.51517" lon="2.20821">
        <ele>1216</ele>
        <time>2019-04-19T13:52:10Z</time>
      </trkpt>
      <trkpt lat="42.51522" lon="2.20831">
        <ele>1215</ele>
        <time>2019-04-19T13:52:18Z</time>
      </trkpt>
      <trkpt lat="42.51527" lon="2.20843">
        <ele>1213</ele>
        <time>2019-04-19T13:52:30Z</time>
      </trkpt>
      <trkpt lat="42.5153" lon="2.20855">
        <ele>1210</ele>
        <time>2019-04-19T13:52:42Z</time>
      </trkpt>
      <trkpt lat="42.51532" lon="2.20867">
        <ele>1208</ele>
        <time>2019-04-19T13:52:56Z</time>
      </trkpt>
      <trkpt lat="42.51531" lon="2.2088">
        <ele>1206</ele>
        <time>2019-04-19T13:53:06Z</time>
      </trkpt>
      <trkpt lat="42.51525" lon="2.2089">
        <ele>1203</ele>
        <time>2019-04-19T13:53:15Z</time>
      </trkpt>
      <trkpt lat="42.51523" lon="2.20903">
        <ele>1200</ele>
        <time>2019-04-19T13:53:35Z</time>
      </trkpt>
      <trkpt lat="42.51532" lon="2.20905">
        <ele>1197</ele>
        <time>2019-04-19T13:53:54Z</time>
      </trkpt>
      <trkpt lat="42.51527" lon="2.20916">
        <ele>1193</ele>
        <time>2019-04-19T13:54:12Z</time>
      </trkpt>
      <trkpt lat="42.51537" lon="2.20914">
        <ele>1190</ele>
        <time>2019-04-19T13:54:28Z</time>
      </trkpt>
      <trkpt lat="42.51545" lon="2.20908">
        <ele>1189</ele>
        <time>2019-04-19T13:54:38Z</time>
      </trkpt>
      <trkpt lat="42.5155" lon="2.20897">
        <ele>1189</ele>
        <time>2019-04-19T13:54:51Z</time>
      </trkpt>
      <trkpt lat="42.51552" lon="2.20909">
        <ele>1184</ele>
        <time>2019-04-19T13:55:07Z</time>
      </trkpt>
      <trkpt lat="42.51558" lon="2.20898">
        <ele>1177</ele>
        <time>2019-04-19T13:55:32Z</time>
      </trkpt>
      <trkpt lat="42.51563" lon="2.20887">
        <ele>1176</ele>
        <time>2019-04-19T13:55:41Z</time>
      </trkpt>
      <trkpt lat="42.51568" lon="2.20876">
        <ele>1176</ele>
        <time>2019-04-19T13:55:50Z</time>
      </trkpt>
      <trkpt lat="42.5157" lon="2.20863">
        <ele>1176</ele>
        <time>2019-04-19T13:56:01Z</time>
      </trkpt>
      <trkpt lat="42.51572" lon="2.20851">
        <ele>1174</ele>
        <time>2019-04-19T13:56:18Z</time>
      </trkpt>
      <trkpt lat="42.51577" lon="2.20839">
        <ele>1173</ele>
        <time>2019-04-19T13:56:27Z</time>
      </trkpt>
      <trkpt lat="42.51581" lon="2.20828">
        <ele>1170</ele>
        <time>2019-04-19T13:56:39Z</time>
      </trkpt>
      <trkpt lat="42.51578" lon="2.20816">
        <ele>1168</ele>
        <time>2019-04-19T13:56:49Z</time>
      </trkpt>
      <trkpt lat="42.51582" lon="2.20805">
        <ele>1167</ele>
        <time>2019-04-19T13:57:08Z</time>
      </trkpt>
      <trkpt lat="42.51579" lon="2.20817">
        <ele>1162</ele>
        <time>2019-04-19T13:57:26Z</time>
      </trkpt>
      <trkpt lat="42.51589" lon="2.20817">
        <ele>1160</ele>
        <time>2019-04-19T13:57:47Z</time>
      </trkpt>
      <trkpt lat="42.51595" lon="2.20806">
        <ele>1158</ele>
        <time>2019-04-19T13:58:21Z</time>
      </trkpt>
      <trkpt lat="42.51598" lon="2.20817">
        <ele>1151</ele>
        <time>2019-04-19T13:58:46Z</time>
      </trkpt>
      <trkpt lat="42.51598" lon="2.20829">
        <ele>1146</ele>
        <time>2019-04-19T13:59:01Z</time>
      </trkpt>
      <trkpt lat="42.51602" lon="2.20841">
        <ele>1144</ele>
        <time>2019-04-19T13:59:15Z</time>
      </trkpt>
      <trkpt lat="42.51603" lon="2.20854">
        <ele>1142</ele>
        <time>2019-04-19T13:59:31Z</time>
      </trkpt>
      <trkpt lat="42.51608" lon="2.20864">
        <ele>1142</ele>
        <time>2019-04-19T13:59:48Z</time>
      </trkpt>
      <trkpt lat="42.51612" lon="2.20852">
        <ele>1139</ele>
        <time>2019-04-19T14:00:02Z</time>
      </trkpt>
      <trkpt lat="42.51618" lon="2.20863">
        <ele>1134</ele>
        <time>2019-04-19T14:00:24Z</time>
      </trkpt>
      <trkpt lat="42.51625" lon="2.20871">
        <ele>1133</ele>
        <time>2019-04-19T14:00:35Z</time>
      </trkpt>
      <trkpt lat="42.51629" lon="2.20882">
        <ele>1131</ele>
        <time>2019-04-19T14:00:46Z</time>
      </trkpt>
      <trkpt lat="42.51635" lon="2.20893">
        <ele>1131</ele>
        <time>2019-04-19T14:00:57Z</time>
      </trkpt>
      <trkpt lat="42.51642" lon="2.20901">
        <ele>1130</ele>
        <time>2019-04-19T14:01:09Z</time>
      </trkpt>
      <trkpt lat="42.5165" lon="2.20907">
        <ele>1130</ele>
        <time>2019-04-19T14:01:24Z</time>
      </trkpt>
      <trkpt lat="42.51651" lon="2.20919">
        <ele>1122</ele>
        <time>2019-04-19T14:01:50Z</time>
      </trkpt>
      <trkpt lat="42.51649" lon="2.20931">
        <ele>1118</ele>
        <time>2019-04-19T14:02:07Z</time>
      </trkpt>
      <trkpt lat="42.51657" lon="2.20935">
        <ele>1116</ele>
        <time>2019-04-19T14:02:22Z</time>
      </trkpt>
      <trkpt lat="42.51667" lon="2.20936">
        <ele>1110</ele>
        <time>2019-04-19T14:02:46Z</time>
      </trkpt>
      <trkpt lat="42.51669" lon="2.20948">
        <ele>1107</ele>
        <time>2019-04-19T14:02:59Z</time>
      </trkpt>
      <trkpt lat="42.51669" lon="2.2096">
        <ele>1104</ele>
        <time>2019-04-19T14:03:14Z</time>
      </trkpt>
      <trkpt lat="42.51678" lon="2.20956">
        <ele>1096</ele>
        <time>2019-04-19T14:03:43Z</time>
      </trkpt>
      <trkpt lat="42.51682" lon="2.20944">
        <ele>1095</ele>
        <time>2019-04-19T14:03:55Z</time>
      </trkpt>
      <trkpt lat="42.51686" lon="2.20933">
        <ele>1094</ele>
        <time>2019-04-19T14:04:34Z</time>
      </trkpt>
      <trkpt lat="42.51685" lon="2.20945">
        <ele>1085</ele>
        <time>2019-04-19T14:05:21Z</time>
      </trkpt>
      <trkpt lat="42.51692" lon="2.20954">
        <ele>1085</ele>
        <time>2019-04-19T14:05:30Z</time>
      </trkpt>
      <trkpt lat="42.51697" lon="2.20964">
        <ele>1080</ele>
        <time>2019-04-19T14:05:47Z</time>
      </trkpt>
      <trkpt lat="42.51702" lon="2.20975">
        <ele>1078</ele>
        <time>2019-04-19T14:06:02Z</time>
      </trkpt>
      <trkpt lat="42.51694" lon="2.20982">
        <ele>1074</ele>
        <time>2019-04-19T14:06:14Z</time>
      </trkpt>
      <trkpt lat="42.51697" lon="2.20994">
        <ele>1071</ele>
        <time>2019-04-19T14:06:26Z</time>
      </trkpt>
      <trkpt lat="42.51704" lon="2.21003">
        <ele>1070</ele>
        <time>2019-04-19T14:06:37Z</time>
      </trkpt>
      <trkpt lat="42.51709" lon="2.21013">
        <ele>1065</ele>
        <time>2019-04-19T14:06:50Z</time>
      </trkpt>
      <trkpt lat="42.51701" lon="2.21036">
        <ele>1061</ele>
        <time>2019-04-19T14:07:17Z</time>
      </trkpt>
      <trkpt lat="42.51696" lon="2.21046">
        <ele>1057</ele>
        <time>2019-04-19T14:07:28Z</time>
      </trkpt>
      <trkpt lat="42.51705" lon="2.2105">
        <ele>1052</ele>
        <time>2019-04-19T14:07:55Z</time>
      </trkpt>
      <trkpt lat="42.51714" lon="2.21048">
        <ele>1049</ele>
        <time>2019-04-19T14:08:09Z</time>
      </trkpt>
      <trkpt lat="42.51724" lon="2.21047">
        <ele>1047</ele>
        <time>2019-04-19T14:08:20Z</time>
      </trkpt>
      <trkpt lat="42.5172" lon="2.21058">
        <ele>1043</ele>
        <time>2019-04-19T14:08:35Z</time>
      </trkpt>
      <trkpt lat="42.51711" lon="2.21066">
        <ele>1040</ele>
        <time>2019-04-19T14:08:51Z</time>
      </trkpt>
      <trkpt lat="42.51697" lon="2.21067">
        <ele>1033</ele>
        <time>2019-04-19T14:09:31Z</time>
      </trkpt>
      <trkpt lat="42.51687" lon="2.2107">
        <ele>1031</ele>
        <time>2019-04-19T14:09:40Z</time>
      </trkpt>
      <trkpt lat="42.51678" lon="2.21065">
        <ele>1031</ele>
        <time>2019-04-19T14:09:50Z</time>
      </trkpt>
      <trkpt lat="42.51669" lon="2.21072">
        <ele>1031</ele>
        <time>2019-04-19T14:10:00Z</time>
      </trkpt>
      <trkpt lat="42.51666" lon="2.21085">
        <ele>1031</ele>
        <time>2019-04-19T14:10:09Z</time>
      </trkpt>
      <trkpt lat="42.51658" lon="2.21091">
        <ele>1030</ele>
        <time>2019-04-19T14:10:18Z</time>
      </trkpt>
      <trkpt lat="42.51654" lon="2.21103">
        <ele>1030</ele>
        <time>2019-04-19T14:10:30Z</time>
      </trkpt>
      <trkpt lat="42.51645" lon="2.21105">
        <ele>1028</ele>
        <time>2019-04-19T14:10:41Z</time>
      </trkpt>
      <trkpt lat="42.5164" lon="2.21116">
        <ele>1025</ele>
        <time>2019-04-19T14:10:47Z</time>
      </trkpt>
      <trkpt lat="42.5163" lon="2.2112">
        <ele>1024</ele>
        <time>2019-04-19T14:10:58Z</time>
      </trkpt>
      <trkpt lat="42.51621" lon="2.21117">
        <ele>1025</ele>
        <time>2019-04-19T14:11:08Z</time>
      </trkpt>
      <trkpt lat="42.51611" lon="2.21118">
        <ele>1021</ele>
        <time>2019-04-19T14:11:47Z</time>
      </trkpt>
      <trkpt lat="42.51601" lon="2.21118">
        <ele>1023</ele>
        <time>2019-04-19T14:12:01Z</time>
      </trkpt>
      <trkpt lat="42.51592" lon="2.2112">
        <ele>1020</ele>
        <time>2019-04-19T14:12:14Z</time>
      </trkpt>
      <trkpt lat="42.51582" lon="2.2112">
        <ele>1018</ele>
        <time>2019-04-19T14:12:26Z</time>
      </trkpt>
      <trkpt lat="42.5158" lon="2.21132">
        <ele>1018</ele>
        <time>2019-04-19T14:12:32Z</time>
      </trkpt>
      <trkpt lat="42.51575" lon="2.21143">
        <ele>1017</ele>
        <time>2019-04-19T14:12:41Z</time>
      </trkpt>
      <trkpt lat="42.51567" lon="2.21149">
        <ele>1017</ele>
        <time>2019-04-19T14:12:53Z</time>
      </trkpt>
      <trkpt lat="42.51576" lon="2.21152">
        <ele>1014</ele>
        <time>2019-04-19T14:13:24Z</time>
      </trkpt>
      <trkpt lat="42.51585" lon="2.21154">
        <ele>1015</ele>
        <time>2019-04-19T14:13:29Z</time>
      </trkpt>
      <trkpt lat="42.51597" lon="2.21155">
        <ele>1014</ele>
        <time>2019-04-19T14:13:46Z</time>
      </trkpt>
      <trkpt lat="42.51606" lon="2.2116">
        <ele>1013</ele>
        <time>2019-04-19T14:14:04Z</time>
      </trkpt>
      <trkpt lat="42.51615" lon="2.21161">
        <ele>1011</ele>
        <time>2019-04-19T14:14:17Z</time>
      </trkpt>
      <trkpt lat="42.51625" lon="2.21162">
        <ele>1010</ele>
        <time>2019-04-19T14:14:41Z</time>
      </trkpt>
      <trkpt lat="42.51635" lon="2.21164">
        <ele>1009</ele>
        <time>2019-04-19T14:14:51Z</time>
      </trkpt>
      <trkpt lat="42.51643" lon="2.2117">
        <ele>1008</ele>
        <time>2019-04-19T14:15:02Z</time>
      </trkpt>
      <trkpt lat="42.51653" lon="2.21173">
        <ele>1008</ele>
        <time>2019-04-19T14:15:08Z</time>
      </trkpt>
      <trkpt lat="42.51662" lon="2.21175">
        <ele>1008</ele>
        <time>2019-04-19T14:15:14Z</time>
      </trkpt>
      <trkpt lat="42.51655" lon="2.21179">
        <ele>1008</ele>
        <time>2019-04-19T14:15:28Z</time>
      </trkpt>
      <trkpt lat="42.51664" lon="2.21181">
        <ele>1009</ele>
        <time>2019-04-19T14:16:09Z</time>
      </trkpt>
      <trkpt lat="42.5167" lon="2.21192">
        <ele>1008</ele>
        <time>2019-04-19T14:16:21Z</time>
      </trkpt>
      <trkpt lat="42.51679" lon="2.21197">
        <ele>1008</ele>
        <time>2019-04-19T14:16:30Z</time>
      </trkpt>
      <trkpt lat="42.51689" lon="2.21196">
        <ele>1009</ele>
        <time>2019-04-19T14:16:51Z</time>
      </trkpt>
      <trkpt lat="42.51697" lon="2.21202">
        <ele>1008</ele>
        <time>2019-04-19T14:17:01Z</time>
      </trkpt>
      <trkpt lat="42.51704" lon="2.21211">
        <ele>1009</ele>
        <time>2019-04-19T14:17:11Z</time>
      </trkpt>
      <trkpt lat="42.51713" lon="2.21216">
        <ele>1010</ele>
        <time>2019-04-19T14:17:24Z</time>
      </trkpt>
      <trkpt lat="42.51719" lon="2.21224">
        <ele>1009</ele>
        <time>2019-04-19T14:17:35Z</time>
      </trkpt>
      <trkpt lat="42.51727" lon="2.21232">
        <ele>1009</ele>
        <time>2019-04-19T14:17:45Z</time>
      </trkpt>
      <trkpt lat="42.51734" lon="2.2124">
        <ele>1009</ele>
        <time>2019-04-19T14:17:55Z</time>
      </trkpt>
      <trkpt lat="42.51741" lon="2.21248">
        <ele>1008</ele>
        <time>2019-04-19T14:18:04Z</time>
      </trkpt>
      <trkpt lat="42.5175" lon="2.21255">
        <ele>1009</ele>
        <time>2019-04-19T14:18:16Z</time>
      </trkpt>
      <trkpt lat="42.51758" lon="2.21262">
        <ele>1009</ele>
        <time>2019-04-19T14:18:28Z</time>
      </trkpt>
      <trkpt lat="42.51766" lon="2.2127">
        <ele>1009</ele>
        <time>2019-04-19T14:18:42Z</time>
      </trkpt>
      <trkpt lat="42.51775" lon="2.21274">
        <ele>1010</ele>
        <time>2019-04-19T14:18:55Z</time>
      </trkpt>
      <trkpt lat="42.51784" lon="2.2128">
        <ele>1008</ele>
        <time>2019-04-19T14:19:15Z</time>
      </trkpt>
      <trkpt lat="42.51794" lon="2.2128">
        <ele>1008</ele>
        <time>2019-04-19T14:19:33Z</time>
      </trkpt>
      <trkpt lat="42.51803" lon="2.21285">
        <ele>1007</ele>
        <time>2019-04-19T14:19:44Z</time>
      </trkpt>
      <trkpt lat="42.51812" lon="2.21288">
        <ele>1008</ele>
        <time>2019-04-19T14:19:58Z</time>
      </trkpt>
      <trkpt lat="42.51821" lon="2.21291">
        <ele>1009</ele>
        <time>2019-04-19T14:20:14Z</time>
      </trkpt>
      <trkpt lat="42.51829" lon="2.21296">
        <ele>1007</ele>
        <time>2019-04-19T14:20:24Z</time>
      </trkpt>
      <trkpt lat="42.51836" lon="2.21305">
        <ele>1007</ele>
        <time>2019-04-19T14:20:35Z</time>
      </trkpt>
      <trkpt lat="42.51843" lon="2.21314">
        <ele>1007</ele>
        <time>2019-04-19T14:20:43Z</time>
      </trkpt>
      <trkpt lat="42.51848" lon="2.21325">
        <ele>1006</ele>
        <time>2019-04-19T14:20:51Z</time>
      </trkpt>
      <trkpt lat="42.51857" lon="2.21332">
        <ele>1006</ele>
        <time>2019-04-19T14:20:58Z</time>
      </trkpt>
      <trkpt lat="42.51862" lon="2.21342">
        <ele>1005</ele>
        <time>2019-04-19T14:21:06Z</time>
      </trkpt>
      <trkpt lat="42.51866" lon="2.21354">
        <ele>1005</ele>
        <time>2019-04-19T14:21:16Z</time>
      </trkpt>
      <trkpt lat="42.51871" lon="2.21364">
        <ele>1004</ele>
        <time>2019-04-19T14:21:24Z</time>
      </trkpt>
      <trkpt lat="42.51876" lon="2.21375">
        <ele>1004</ele>
        <time>2019-04-19T14:21:32Z</time>
      </trkpt>
      <trkpt lat="42.5188" lon="2.21387">
        <ele>1002</ele>
        <time>2019-04-19T14:21:45Z</time>
      </trkpt>
      <trkpt lat="42.51884" lon="2.21399">
        <ele>1002</ele>
        <time>2019-04-19T14:21:51Z</time>
      </trkpt>
      <trkpt lat="42.51886" lon="2.21412">
        <ele>999</ele>
        <time>2019-04-19T14:21:58Z</time>
      </trkpt>
      <trkpt lat="42.51885" lon="2.21424">
        <ele>998</ele>
        <time>2019-04-19T14:22:08Z</time>
      </trkpt>
      <trkpt lat="42.51883" lon="2.21436">
        <ele>997</ele>
        <time>2019-04-19T14:22:16Z</time>
      </trkpt>
      <trkpt lat="42.51879" lon="2.21448">
        <ele>996</ele>
        <time>2019-04-19T14:22:36Z</time>
      </trkpt>
      <trkpt lat="42.51876" lon="2.21459">
        <ele>997</ele>
        <time>2019-04-19T14:22:50Z</time>
      </trkpt>
      <trkpt lat="42.51878" lon="2.21471">
        <ele>997</ele>
        <time>2019-04-19T14:22:58Z</time>
      </trkpt>
      <trkpt lat="42.51876" lon="2.21484">
        <ele>996</ele>
        <time>2019-04-19T14:23:09Z</time>
      </trkpt>
      <trkpt lat="42.5188" lon="2.21496">
        <ele>996</ele>
        <time>2019-04-19T14:23:21Z</time>
      </trkpt>
      <trkpt lat="42.51884" lon="2.21508">
        <ele>996</ele>
        <time>2019-04-19T14:23:30Z</time>
      </trkpt>
      <trkpt lat="42.51885" lon="2.21522">
        <ele>998</ele>
        <time>2019-04-19T14:23:41Z</time>
      </trkpt>
      <trkpt lat="42.51887" lon="2.21535">
        <ele>998</ele>
        <time>2019-04-19T14:23:51Z</time>
      </trkpt>
      <trkpt lat="42.51888" lon="2.21548">
        <ele>997</ele>
        <time>2019-04-19T14:24:00Z</time>
      </trkpt>
      <trkpt lat="42.51891" lon="2.2156">
        <ele>996</ele>
        <time>2019-04-19T14:24:08Z</time>
      </trkpt>
      <trkpt lat="42.51893" lon="2.21572">
        <ele>996</ele>
        <time>2019-04-19T14:24:18Z</time>
      </trkpt>
      <trkpt lat="42.51895" lon="2.21587">
        <ele>997</ele>
        <time>2019-04-19T14:24:28Z</time>
      </trkpt>
      <trkpt lat="42.51892" lon="2.216">
        <ele>999</ele>
        <time>2019-04-19T14:24:39Z</time>
      </trkpt>
      <trkpt lat="42.51898" lon="2.2161">
        <ele>999</ele>
        <time>2019-04-19T14:24:49Z</time>
      </trkpt>
      <trkpt lat="42.519" lon="2.21623">
        <ele>999</ele>
        <time>2019-04-19T14:25:23Z</time>
      </trkpt>
      <trkpt lat="42.51906" lon="2.21633">
        <ele>998</ele>
        <time>2019-04-19T14:25:31Z</time>
      </trkpt>
      <trkpt lat="42.51911" lon="2.21644">
        <ele>998</ele>
        <time>2019-04-19T14:25:42Z</time>
      </trkpt>
      <trkpt lat="42.51914" lon="2.21656">
        <ele>999</ele>
        <time>2019-04-19T14:25:52Z</time>
      </trkpt>
      <trkpt lat="42.51921" lon="2.21666">
        <ele>999</ele>
        <time>2019-04-19T14:25:59Z</time>
      </trkpt>
      <trkpt lat="42.51926" lon="2.21676">
        <ele>1000</ele>
        <time>2019-04-19T14:26:07Z</time>
      </trkpt>
      <trkpt lat="42.51928" lon="2.21688">
        <ele>1000</ele>
        <time>2019-04-19T14:26:16Z</time>
      </trkpt>
      <trkpt lat="42.51929" lon="2.21701">
        <ele>1000</ele>
        <time>2019-04-19T14:26:25Z</time>
      </trkpt>
      <trkpt lat="42.51932" lon="2.21714">
        <ele>1000</ele>
        <time>2019-04-19T14:26:33Z</time>
      </trkpt>
      <trkpt lat="42.51938" lon="2.21727">
        <ele>999</ele>
        <time>2019-04-19T14:26:58Z</time>
      </trkpt>
      <trkpt lat="42.51929" lon="2.21735">
        <ele>999</ele>
        <time>2019-04-19T14:30:37Z</time>
      </trkpt>
      <trkpt lat="42.51938" lon="2.21729">
        <ele>1003</ele>
        <time>2019-04-19T14:30:47Z</time>
      </trkpt>
      <trkpt lat="42.51945" lon="2.21736">
        <ele>994</ele>
        <time>2019-04-19T14:33:31Z</time>
      </trkpt>
      <trkpt lat="42.51946" lon="2.2175">
        <ele>995</ele>
        <time>2019-04-19T14:33:59Z</time>
      </trkpt>
      <trkpt lat="42.51952" lon="2.21761">
        <ele>996</ele>
        <time>2019-04-19T14:34:09Z</time>
      </trkpt>
      <trkpt lat="42.51953" lon="2.21774">
        <ele>996</ele>
        <time>2019-04-19T14:34:17Z</time>
      </trkpt>
      <trkpt lat="42.51954" lon="2.21786">
        <ele>997</ele>
        <time>2019-04-19T14:34:29Z</time>
      </trkpt>
      <trkpt lat="42.51962" lon="2.21797">
        <ele>997</ele>
        <time>2019-04-19T14:34:37Z</time>
      </trkpt>
      <trkpt lat="42.51969" lon="2.21809">
        <ele>996</ele>
        <time>2019-04-19T14:34:43Z</time>
      </trkpt>
      <trkpt lat="42.51969" lon="2.21823">
        <ele>995</ele>
        <time>2019-04-19T14:34:53Z</time>
      </trkpt>
      <trkpt lat="42.51967" lon="2.21837">
        <ele>995</ele>
        <time>2019-04-19T14:35:07Z</time>
      </trkpt>
      <trkpt lat="42.5197" lon="2.21851">
        <ele>995</ele>
        <time>2019-04-19T14:35:13Z</time>
      </trkpt>
      <trkpt lat="42.51972" lon="2.21864">
        <ele>995</ele>
        <time>2019-04-19T14:35:21Z</time>
      </trkpt>
      <trkpt lat="42.51969" lon="2.21876">
        <ele>995</ele>
        <time>2019-04-19T14:35:33Z</time>
      </trkpt>
      <trkpt lat="42.51975" lon="2.21888">
        <ele>994</ele>
        <time>2019-04-19T14:35:41Z</time>
      </trkpt>
      <trkpt lat="42.5197" lon="2.21901">
        <ele>994</ele>
        <time>2019-04-19T14:35:53Z</time>
      </trkpt>
      <trkpt lat="42.51972" lon="2.21915">
        <ele>995</ele>
        <time>2019-04-19T14:35:59Z</time>
      </trkpt>
      <trkpt lat="42.51973" lon="2.2193">
        <ele>995</ele>
        <time>2019-04-19T14:36:07Z</time>
      </trkpt>
      <trkpt lat="42.51978" lon="2.21942">
        <ele>994</ele>
        <time>2019-04-19T14:36:15Z</time>
      </trkpt>
      <trkpt lat="42.51981" lon="2.21954">
        <ele>994</ele>
        <time>2019-04-19T14:36:23Z</time>
      </trkpt>
      <trkpt lat="42.51988" lon="2.21965">
        <ele>994</ele>
        <time>2019-04-19T14:36:43Z</time>
      </trkpt>
      <trkpt lat="42.51994" lon="2.21974">
        <ele>994</ele>
        <time>2019-04-19T14:36:51Z</time>
      </trkpt>
      <trkpt lat="42.5199" lon="2.21988">
        <ele>996</ele>
        <time>2019-04-19T14:37:01Z</time>
      </trkpt>
      <trkpt lat="42.51989" lon="2.22001">
        <ele>997</ele>
        <time>2019-04-19T14:37:11Z</time>
      </trkpt>
      <trkpt lat="42.51992" lon="2.22014">
        <ele>997</ele>
        <time>2019-04-19T14:37:19Z</time>
      </trkpt>
      <trkpt lat="42.51993" lon="2.22027">
        <ele>997</ele>
        <time>2019-04-19T14:37:27Z</time>
      </trkpt>
      <trkpt lat="42.51995" lon="2.22042">
        <ele>996</ele>
        <time>2019-04-19T14:37:35Z</time>
      </trkpt>
      <trkpt lat="42.51998" lon="2.22054">
        <ele>995</ele>
        <time>2019-04-19T14:37:43Z</time>
      </trkpt>
      <trkpt lat="42.52001" lon="2.22067">
        <ele>994</ele>
        <time>2019-04-19T14:37:49Z</time>
      </trkpt>
      <trkpt lat="42.51991" lon="2.22072">
        <ele>994</ele>
        <time>2019-04-19T14:38:05Z</time>
      </trkpt>
      <trkpt lat="42.51976" lon="2.22074">
        <ele>990</ele>
        <time>2019-04-19T14:38:16Z</time>
      </trkpt>
      <trkpt lat="42.51961" lon="2.22086">
        <ele>991</ele>
        <time>2019-04-19T14:38:51Z</time>
      </trkpt>
      <trkpt lat="42.51954" lon="2.22094">
        <ele>992</ele>
        <time>2019-04-19T14:38:58Z</time>
      </trkpt>
      <trkpt lat="42.5195" lon="2.22108">
        <ele>990</ele>
        <time>2019-04-19T14:39:06Z</time>
      </trkpt>
      <trkpt lat="42.51941" lon="2.22114">
        <ele>995</ele>
        <time>2019-04-19T14:39:17Z</time>
      </trkpt>
      <trkpt lat="42.51928" lon="2.22085">
        <ele>991</ele>
        <time>2019-04-19T14:39:23Z</time>
      </trkpt>
      <trkpt lat="42.51919" lon="2.22088">
        <ele>998</ele>
        <time>2019-04-19T14:39:32Z</time>
      </trkpt>
      <trkpt lat="42.51911" lon="2.221">
        <ele>993</ele>
        <time>2019-04-19T14:39:43Z</time>
      </trkpt>
      <trkpt lat="42.51901" lon="2.22098">
        <ele>992</ele>
        <time>2019-04-19T14:39:48Z</time>
      </trkpt>
      <trkpt lat="42.51899" lon="2.22112">
        <ele>992</ele>
        <time>2019-04-19T14:39:55Z</time>
      </trkpt>
      <trkpt lat="42.51875" lon="2.22101">
        <ele>997</ele>
        <time>2019-04-19T14:40:01Z</time>
      </trkpt>
      <trkpt lat="42.51865" lon="2.22096">
        <ele>1001</ele>
        <time>2019-04-19T14:40:17Z</time>
      </trkpt>
      <trkpt lat="42.51856" lon="2.22098">
        <ele>1008</ele>
        <time>2019-04-19T14:40:30Z</time>
      </trkpt>
      <trkpt lat="42.51846" lon="2.22089">
        <ele>1007</ele>
        <time>2019-04-19T14:40:40Z</time>
      </trkpt>
      <trkpt lat="42.51836" lon="2.22088">
        <ele>1005</ele>
        <time>2019-04-19T14:40:47Z</time>
      </trkpt>
      <trkpt lat="42.51811" lon="2.22096">
        <ele>1001</ele>
        <time>2019-04-19T14:41:02Z</time>
      </trkpt>
      <trkpt lat="42.51818" lon="2.22078">
        <ele>998</ele>
        <time>2019-04-19T14:41:08Z</time>
      </trkpt>
      <trkpt lat="42.51809" lon="2.22076">
        <ele>995</ele>
        <time>2019-04-19T14:41:24Z</time>
      </trkpt>
      <trkpt lat="42.51799" lon="2.22077">
        <ele>1008</ele>
        <time>2019-04-19T14:41:33Z</time>
      </trkpt>
      <trkpt lat="42.5179" lon="2.22072">
        <ele>1009</ele>
        <time>2019-04-19T14:41:43Z</time>
      </trkpt>
      <trkpt lat="42.51781" lon="2.22079">
        <ele>1009</ele>
        <time>2019-04-19T14:41:50Z</time>
      </trkpt>
      <trkpt lat="42.51773" lon="2.22086">
        <ele>1006</ele>
        <time>2019-04-19T14:41:56Z</time>
      </trkpt>
      <trkpt lat="42.51765" lon="2.22092">
        <ele>1004</ele>
        <time>2019-04-19T14:42:12Z</time>
      </trkpt>
      <trkpt lat="42.51759" lon="2.22102">
        <ele>1003</ele>
        <time>2019-04-19T14:42:20Z</time>
      </trkpt>
      <trkpt lat="42.51754" lon="2.22113">
        <ele>1001</ele>
        <time>2019-04-19T14:42:28Z</time>
      </trkpt>
      <trkpt lat="42.51748" lon="2.22123">
        <ele>1003</ele>
        <time>2019-04-19T14:42:38Z</time>
      </trkpt>
      <trkpt lat="42.51741" lon="2.22133">
        <ele>1004</ele>
        <time>2019-04-19T14:42:47Z</time>
      </trkpt>
      <trkpt lat="42.51735" lon="2.22142">
        <ele>1004</ele>
        <time>2019-04-19T14:42:55Z</time>
      </trkpt>
      <trkpt lat="42.51729" lon="2.22152">
        <ele>1003</ele>
        <time>2019-04-19T14:43:02Z</time>
      </trkpt>
      <trkpt lat="42.51723" lon="2.22161">
        <ele>1004</ele>
        <time>2019-04-19T14:43:11Z</time>
      </trkpt>
      <trkpt lat="42.5172" lon="2.22173">
        <ele>1003</ele>
        <time>2019-04-19T14:43:19Z</time>
      </trkpt>
      <trkpt lat="42.51715" lon="2.22184">
        <ele>1002</ele>
        <time>2019-04-19T14:43:27Z</time>
      </trkpt>
      <trkpt lat="42.51706" lon="2.22185">
        <ele>1004</ele>
        <time>2019-04-19T14:43:36Z</time>
      </trkpt>
      <trkpt lat="42.51697" lon="2.22182">
        <ele>1005</ele>
        <time>2019-04-19T14:43:45Z</time>
      </trkpt>
      <trkpt lat="42.51688" lon="2.22187">
        <ele>1004</ele>
        <time>2019-04-19T14:43:54Z</time>
      </trkpt>
      <trkpt lat="42.51679" lon="2.22191">
        <ele>1003</ele>
        <time>2019-04-19T14:44:04Z</time>
      </trkpt>
      <trkpt lat="42.51669" lon="2.22189">
        <ele>1005</ele>
        <time>2019-04-19T14:44:13Z</time>
      </trkpt>
      <trkpt lat="42.51661" lon="2.22196">
        <ele>1004</ele>
        <time>2019-04-19T14:44:22Z</time>
      </trkpt>
      <trkpt lat="42.51652" lon="2.222">
        <ele>1004</ele>
        <time>2019-04-19T14:44:30Z</time>
      </trkpt>
      <trkpt lat="42.51643" lon="2.22203">
        <ele>1004</ele>
        <time>2019-04-19T14:44:40Z</time>
      </trkpt>
      <trkpt lat="42.51634" lon="2.22209">
        <ele>1003</ele>
        <time>2019-04-19T14:44:48Z</time>
      </trkpt>
      <trkpt lat="42.51625" lon="2.22215">
        <ele>1002</ele>
        <time>2019-04-19T14:45:03Z</time>
      </trkpt>
      <trkpt lat="42.51627" lon="2.22228">
        <ele>1003</ele>
        <time>2019-04-19T14:45:11Z</time>
      </trkpt>
      <trkpt lat="42.51631" lon="2.2224">
        <ele>1000</ele>
        <time>2019-04-19T14:45:19Z</time>
      </trkpt>
      <trkpt lat="42.51639" lon="2.22236">
        <ele>999</ele>
        <time>2019-04-19T14:45:31Z</time>
      </trkpt>
      <trkpt lat="42.51647" lon="2.22228">
        <ele>1001</ele>
        <time>2019-04-19T14:45:44Z</time>
      </trkpt>
      <trkpt lat="42.51655" lon="2.22222">
        <ele>1002</ele>
        <time>2019-04-19T14:46:03Z</time>
      </trkpt>
      <trkpt lat="42.51665" lon="2.22226">
        <ele>1001</ele>
        <time>2019-04-19T14:46:15Z</time>
      </trkpt>
      <trkpt lat="42.51674" lon="2.22223">
        <ele>1001</ele>
        <time>2019-04-19T14:46:21Z</time>
      </trkpt>
      <trkpt lat="42.51684" lon="2.22221">
        <ele>999</ele>
        <time>2019-04-19T14:46:37Z</time>
      </trkpt>
      <trkpt lat="42.51687" lon="2.22208">
        <ele>1000</ele>
        <time>2019-04-19T14:46:47Z</time>
      </trkpt>
      <trkpt lat="42.51698" lon="2.22209">
        <ele>999</ele>
        <time>2019-04-19T14:46:55Z</time>
      </trkpt>
      <trkpt lat="42.517" lon="2.22226">
        <ele>1001</ele>
        <time>2019-04-19T14:47:08Z</time>
      </trkpt>
      <trkpt lat="42.51691" lon="2.22231">
        <ele>1000</ele>
        <time>2019-04-19T14:47:15Z</time>
      </trkpt>
      <trkpt lat="42.517" lon="2.22224">
        <ele>994</ele>
        <time>2019-04-19T14:48:01Z</time>
      </trkpt>
      <trkpt lat="42.5171" lon="2.22227">
        <ele>996</ele>
        <time>2019-04-19T14:48:13Z</time>
      </trkpt>
      <trkpt lat="42.51716" lon="2.22236">
        <ele>998</ele>
        <time>2019-04-19T14:48:24Z</time>
      </trkpt>
      <trkpt lat="42.51724" lon="2.22242">
        <ele>997</ele>
        <time>2019-04-19T14:48:34Z</time>
      </trkpt>
      <trkpt lat="42.51733" lon="2.22241">
        <ele>985</ele>
        <time>2019-04-19T14:48:57Z</time>
      </trkpt>
      <trkpt lat="42.51742" lon="2.22243">
        <ele>989</ele>
        <time>2019-04-19T14:49:12Z</time>
      </trkpt>
      <trkpt lat="42.51751" lon="2.2224">
        <ele>983</ele>
        <time>2019-04-19T14:49:20Z</time>
      </trkpt>
      <trkpt lat="42.51759" lon="2.22233">
        <ele>979</ele>
        <time>2019-04-19T14:49:26Z</time>
      </trkpt>
      <trkpt lat="42.51767" lon="2.22225">
        <ele>977</ele>
        <time>2019-04-19T14:49:38Z</time>
      </trkpt>
      <trkpt lat="42.51776" lon="2.22217">
        <ele>976</ele>
        <time>2019-04-19T14:49:46Z</time>
      </trkpt>
      <trkpt lat="42.51784" lon="2.22211">
        <ele>982</ele>
        <time>2019-04-19T14:50:00Z</time>
      </trkpt>
      <trkpt lat="42.51788" lon="2.22223">
        <ele>968</ele>
        <time>2019-04-19T14:50:16Z</time>
      </trkpt>
      <trkpt lat="42.51783" lon="2.22233">
        <ele>966</ele>
        <time>2019-04-19T14:50:22Z</time>
      </trkpt>
      <trkpt lat="42.51778" lon="2.22242">
        <ele>966</ele>
        <time>2019-04-19T14:50:30Z</time>
      </trkpt>
      <trkpt lat="42.51772" lon="2.22252">
        <ele>982</ele>
        <time>2019-04-19T14:50:44Z</time>
      </trkpt>
      <trkpt lat="42.5178" lon="2.22249">
        <ele>967</ele>
        <time>2019-04-19T14:51:10Z</time>
      </trkpt>
      <trkpt lat="42.51789" lon="2.22244">
        <ele>966</ele>
        <time>2019-04-19T14:51:17Z</time>
      </trkpt>
      <trkpt lat="42.51798" lon="2.22238">
        <ele>964</ele>
        <time>2019-04-19T14:51:32Z</time>
      </trkpt>
      <trkpt lat="42.51804" lon="2.22229">
        <ele>964</ele>
        <time>2019-04-19T14:51:50Z</time>
      </trkpt>
      <trkpt lat="42.51811" lon="2.2222">
        <ele>962</ele>
        <time>2019-04-19T14:51:57Z</time>
      </trkpt>
      <trkpt lat="42.51811" lon="2.22236">
        <ele>976</ele>
        <time>2019-04-19T14:52:08Z</time>
      </trkpt>
      <trkpt lat="42.51812" lon="2.22249">
        <ele>972</ele>
        <time>2019-04-19T14:52:18Z</time>
      </trkpt>
      <trkpt lat="42.51815" lon="2.22261">
        <ele>951</ele>
        <time>2019-04-19T14:52:26Z</time>
      </trkpt>
      <trkpt lat="42.51812" lon="2.22274">
        <ele>941</ele>
        <time>2019-04-19T14:52:40Z</time>
      </trkpt>
      <trkpt lat="42.51806" lon="2.22285">
        <ele>950</ele>
        <time>2019-04-19T14:53:15Z</time>
      </trkpt>
      <trkpt lat="42.51816" lon="2.22288">
        <ele>946</ele>
        <time>2019-04-19T14:53:30Z</time>
      </trkpt>
      <trkpt lat="42.51808" lon="2.22295">
        <ele>934</ele>
        <time>2019-04-19T14:53:43Z</time>
      </trkpt>
      <trkpt lat="42.51802" lon="2.22304">
        <ele>938</ele>
        <time>2019-04-19T14:53:50Z</time>
      </trkpt>
      <trkpt lat="42.51808" lon="2.22295">
        <ele>937</ele>
        <time>2019-04-19T14:54:01Z</time>
      </trkpt>
      <trkpt lat="42.5181" lon="2.22309">
        <ele>934</ele>
        <time>2019-04-19T14:54:25Z</time>
      </trkpt>
      <trkpt lat="42.51807" lon="2.22323">
        <ele>934</ele>
        <time>2019-04-19T14:54:45Z</time>
      </trkpt>
      <trkpt lat="42.51799" lon="2.22331">
        <ele>939</ele>
        <time>2019-04-19T14:54:55Z</time>
      </trkpt>
      <trkpt lat="42.51784" lon="2.22334">
        <ele>932</ele>
        <time>2019-04-19T14:55:06Z</time>
      </trkpt>
      <trkpt lat="42.51776" lon="2.22339">
        <ele>950</ele>
        <time>2019-04-19T14:55:21Z</time>
      </trkpt>
      <trkpt lat="42.51783" lon="2.22331">
        <ele>934</ele>
        <time>2019-04-19T14:55:39Z</time>
      </trkpt>
      <trkpt lat="42.51792" lon="2.22339">
        <ele>938</ele>
        <time>2019-04-19T14:55:45Z</time>
      </trkpt>
      <trkpt lat="42.51811" lon="2.22341">
        <ele>941</ele>
        <time>2019-04-19T14:55:54Z</time>
      </trkpt>
      <trkpt lat="42.51818" lon="2.22326">
        <ele>931</ele>
        <time>2019-04-19T14:56:12Z</time>
      </trkpt>
      <trkpt lat="42.51827" lon="2.22323">
        <ele>926</ele>
        <time>2019-04-19T14:56:36Z</time>
      </trkpt>
      <trkpt lat="42.51834" lon="2.22313">
        <ele>922</ele>
        <time>2019-04-19T14:56:49Z</time>
      </trkpt>
      <trkpt lat="42.5184" lon="2.22303">
        <ele>919</ele>
        <time>2019-04-19T14:56:59Z</time>
      </trkpt>
      <trkpt lat="42.51843" lon="2.22288">
        <ele>919</ele>
        <time>2019-04-19T14:57:05Z</time>
      </trkpt>
      <trkpt lat="42.51846" lon="2.22276">
        <ele>910</ele>
        <time>2019-04-19T14:57:11Z</time>
      </trkpt>
      <trkpt lat="42.51854" lon="2.22271">
        <ele>912</ele>
        <time>2019-04-19T14:57:22Z</time>
      </trkpt>
      <trkpt lat="42.51862" lon="2.22264">
        <ele>915</ele>
        <time>2019-04-19T14:57:30Z</time>
      </trkpt>
      <trkpt lat="42.51867" lon="2.22275">
        <ele>915</ele>
        <time>2019-04-19T14:57:35Z</time>
      </trkpt>
      <trkpt lat="42.51876" lon="2.22279">
        <ele>916</ele>
        <time>2019-04-19T14:57:41Z</time>
      </trkpt>
      <trkpt lat="42.51885" lon="2.22275">
        <ele>916</ele>
        <time>2019-04-19T14:57:48Z</time>
      </trkpt>
      <trkpt lat="42.51882" lon="2.22263">
        <ele>916</ele>
        <time>2019-04-19T14:57:53Z</time>
      </trkpt>
      <trkpt lat="42.51888" lon="2.22236">
        <ele>915</ele>
        <time>2019-04-19T14:57:59Z</time>
      </trkpt>
      <trkpt lat="42.51882" lon="2.22226">
        <ele>908</ele>
        <time>2019-04-19T14:58:04Z</time>
      </trkpt>
      <trkpt lat="42.51886" lon="2.22214">
        <ele>903</ele>
        <time>2019-04-19T14:58:31Z</time>
      </trkpt>
      <trkpt lat="42.51886" lon="2.22186">
        <ele>912</ele>
        <time>2019-04-19T14:58:39Z</time>
      </trkpt>
      <trkpt lat="42.51896" lon="2.22182">
        <ele>914</ele>
        <time>2019-04-19T14:58:49Z</time>
      </trkpt>
      <trkpt lat="42.51902" lon="2.22167">
        <ele>912</ele>
        <time>2019-04-19T14:58:59Z</time>
      </trkpt>
      <trkpt lat="42.51911" lon="2.22162">
        <ele>915</ele>
        <time>2019-04-19T14:59:07Z</time>
      </trkpt>
      <trkpt lat="42.5192" lon="2.22156">
        <ele>916</ele>
        <time>2019-04-19T14:59:18Z</time>
      </trkpt>
      <trkpt lat="42.51928" lon="2.22163">
        <ele>914</ele>
        <time>2019-04-19T14:59:25Z</time>
      </trkpt>
      <trkpt lat="42.51947" lon="2.22166">
        <ele>910</ele>
        <time>2019-04-19T14:59:37Z</time>
      </trkpt>
      <trkpt lat="42.51968" lon="2.22144">
        <ele>913</ele>
        <time>2019-04-19T15:00:05Z</time>
      </trkpt>
      <trkpt lat="42.51979" lon="2.2215">
        <ele>906</ele>
        <time>2019-04-19T15:00:27Z</time>
      </trkpt>
      <trkpt lat="42.51986" lon="2.22159">
        <ele>890</ele>
        <time>2019-04-19T15:00:32Z</time>
      </trkpt>
      <trkpt lat="42.52003" lon="2.22169">
        <ele>891</ele>
        <time>2019-04-19T15:00:40Z</time>
      </trkpt>
      <trkpt lat="42.52012" lon="2.22174">
        <ele>898</ele>
        <time>2019-04-19T15:00:49Z</time>
      </trkpt>
      <trkpt lat="42.5202" lon="2.22168">
        <ele>886</ele>
        <time>2019-04-19T15:01:05Z</time>
      </trkpt>
      <trkpt lat="42.5203" lon="2.22169">
        <ele>897</ele>
        <time>2019-04-19T15:01:29Z</time>
      </trkpt>
      <trkpt lat="42.5204" lon="2.22175">
        <ele>903</ele>
        <time>2019-04-19T15:01:37Z</time>
      </trkpt>
      <trkpt lat="42.52051" lon="2.22213">
        <ele>898</ele>
        <time>2019-04-19T15:01:50Z</time>
      </trkpt>
      <trkpt lat="42.52066" lon="2.22183">
        <ele>904</ele>
        <time>2019-04-19T15:01:56Z</time>
      </trkpt>
      <trkpt lat="42.52085" lon="2.2218">
        <ele>896</ele>
        <time>2019-04-19T15:02:04Z</time>
      </trkpt>
      <trkpt lat="42.52104" lon="2.22169">
        <ele>888</ele>
        <time>2019-04-19T15:02:12Z</time>
      </trkpt>
      <trkpt lat="42.52113" lon="2.22163">
        <ele>888</ele>
        <time>2019-04-19T15:02:17Z</time>
      </trkpt>
      <trkpt lat="42.52122" lon="2.22164">
        <ele>885</ele>
        <time>2019-04-19T15:02:41Z</time>
      </trkpt>
      <trkpt lat="42.52133" lon="2.22179">
        <ele>885</ele>
        <time>2019-04-19T15:02:47Z</time>
      </trkpt>
      <trkpt lat="42.52148" lon="2.22198">
        <ele>894</ele>
        <time>2019-04-19T15:02:56Z</time>
      </trkpt>
      <trkpt lat="42.52158" lon="2.22195">
        <ele>889</ele>
        <time>2019-04-19T15:03:06Z</time>
      </trkpt>
      <trkpt lat="42.52175" lon="2.22178">
        <ele>881</ele>
        <time>2019-04-19T15:03:15Z</time>
      </trkpt>
      <trkpt lat="42.52183" lon="2.22171">
        <ele>873</ele>
        <time>2019-04-19T15:03:23Z</time>
      </trkpt>
      <trkpt lat="42.52188" lon="2.22155">
        <ele>875</ele>
        <time>2019-04-19T15:03:28Z</time>
      </trkpt>
      <trkpt lat="42.52201" lon="2.22162">
        <ele>859</ele>
        <time>2019-04-19T15:03:35Z</time>
      </trkpt>
      <trkpt lat="42.52209" lon="2.22169">
        <ele>859</ele>
        <time>2019-04-19T15:03:45Z</time>
      </trkpt>
      <trkpt lat="42.52219" lon="2.22168">
        <ele>857</ele>
        <time>2019-04-19T15:03:53Z</time>
      </trkpt>
      <trkpt lat="42.52229" lon="2.22168">
        <ele>856</ele>
        <time>2019-04-19T15:04:03Z</time>
      </trkpt>
      <trkpt lat="42.52238" lon="2.2217">
        <ele>854</ele>
        <time>2019-04-19T15:04:13Z</time>
      </trkpt>
      <trkpt lat="42.52247" lon="2.22169">
        <ele>854</ele>
        <time>2019-04-19T15:04:41Z</time>
      </trkpt>
      <trkpt lat="42.52256" lon="2.22166">
        <ele>854</ele>
        <time>2019-04-19T15:04:47Z</time>
      </trkpt>
      <trkpt lat="42.52264" lon="2.22162">
        <ele>854</ele>
        <time>2019-04-19T15:04:54Z</time>
      </trkpt>
      <trkpt lat="42.52274" lon="2.22159">
        <ele>854</ele>
        <time>2019-04-19T15:05:02Z</time>
      </trkpt>
      <trkpt lat="42.52283" lon="2.22155">
        <ele>852</ele>
        <time>2019-04-19T15:05:09Z</time>
      </trkpt>
      <trkpt lat="42.52292" lon="2.22151">
        <ele>851</ele>
        <time>2019-04-19T15:05:15Z</time>
      </trkpt>
      <trkpt lat="42.52301" lon="2.22147">
        <ele>851</ele>
        <time>2019-04-19T15:05:23Z</time>
      </trkpt>
      <trkpt lat="42.52309" lon="2.22139">
        <ele>849</ele>
        <time>2019-04-19T15:05:32Z</time>
      </trkpt>
      <trkpt lat="42.52318" lon="2.2213">
        <ele>848</ele>
        <time>2019-04-19T15:05:42Z</time>
      </trkpt>
      <trkpt lat="42.52327" lon="2.22123">
        <ele>847</ele>
        <time>2019-04-19T15:05:54Z</time>
      </trkpt>
      <trkpt lat="42.52335" lon="2.22114">
        <ele>845</ele>
        <time>2019-04-19T15:06:04Z</time>
      </trkpt>
      <trkpt lat="42.52343" lon="2.22106">
        <ele>843</ele>
        <time>2019-04-19T15:06:12Z</time>
      </trkpt>
      <trkpt lat="42.52353" lon="2.22101">
        <ele>843</ele>
        <time>2019-04-19T15:06:20Z</time>
      </trkpt>
      <trkpt lat="42.52364" lon="2.22108">
        <ele>843</ele>
        <time>2019-04-19T15:06:30Z</time>
      </trkpt>
      <trkpt lat="42.52373" lon="2.22111">
        <ele>843</ele>
        <time>2019-04-19T15:06:36Z</time>
      </trkpt>
      <trkpt lat="42.52378" lon="2.22104">
        <ele>842</ele>
        <time>2019-04-19T15:06:44Z</time>
      </trkpt>
    </trkseg>
  </trk>
</gpx>